<?xml version="1.0" encoding="UTF-8" standalone="no" ?><gpx xmlns="http://www.topografix.com/GPX/1/1" creator="MapSource 6.16.3" version="1.1" xmlns:xsi="http://www.w3.org/2001/XMLSchema-instance" xsi:schemaLocation="http://www.topografix.com/GPX/1/1 http://www.topografix.com/GPX/1/1/gpx.xsd">  <metadata>    <link href="http://www.garmin.com">      <text>Garmin International</text>    </link>    <time>2018-04-26T08:22:43Z</time>    <bounds maxlat="52.483051680028439" maxlon="10.101285399869084" minlat="52.390208775177598" minlon="9.735887814313173"/>  </metadata>  <wpt lat="52.416350841522217" lon="9.938786029815674">    <time>2018-04-26T07:44:31Z</time>    <name>Abstecher in Moor</name>    <cmt>[Radweg]</cmt>    <desc>[Radweg]</desc>    <sym>Waypoint</sym>    <extensions>      <gpxx:WaypointExtension xmlns:gpxx="http://www.garmin.com/xmlschemas/GpxExtensions/v3">        <gpxx:DisplayMode>SymbolAndName</gpxx:DisplayMode>      </gpxx:WaypointExtension>    </extensions>  </wpt>  <wpt lat="52.475037574768066" lon="9.768497943878174">    <time>2018-04-26T08:14:59Z</time>    <name>Aussichtspunkt</name>    <cmt>Aussichtspunkt</cmt>    <desc>Aussichtspunkt</desc>    <sym>Waypoint</sym>    <extensions>      <gpxx:WaypointExtension xmlns:gpxx="http://www.garmin.com/xmlschemas/GpxExtensions/v3">        <gpxx:DisplayMode>SymbolAndName</gpxx:DisplayMode>      </gpxx:WaypointExtension>    </extensions>  </wpt>  <wpt lat="52.409656047821045" lon="10.084741115570068">    <time>2017-10-23T14:16:33Z</time>    <name>Naturfreundehaus Grafhorn</name>    <cmt>Naturfreundehaus Grafhorn (Herberge)</cmt>    <desc>Naturfreundehaus Grafhorn (Herberge)</desc>    <sym>Residence</sym>    <extensions>      <gpxx:WaypointExtension xmlns:gpxx="http://www.garmin.com/xmlschemas/GpxExtensions/v3">        <gpxx:DisplayMode>SymbolAndName</gpxx:DisplayMode>        <gpxx:Address>          <gpxx:StreetAddress>Zum Grafhorn 30</gpxx:StreetAddress>          <gpxx:City>Lehrte</gpxx:City>          <gpxx:State>Region Hannover</gpxx:State>          <gpxx:Country>DEU</gpxx:Country>          <gpxx:PostalCode>31275</gpxx:PostalCode>        </gpxx:Address>        <gpxx:PhoneNumber></gpxx:PhoneNumber>      </gpxx:WaypointExtension>    </extensions>  </wpt>  <wpt lat="52.402639389038086" lon="9.849779605865479">    <time>2018-04-26T08:04:14Z</time>    <name>Naturfreundehaus Misburg</name>    <cmt>Naturfreundehaus Misburg (Herberge)</cmt>    <desc>Naturfreundehaus Misburg (Herberge)</desc>    <sym>Residence</sym>    <extensions>      <gpxx:WaypointExtension xmlns:gpxx="http://www.garmin.com/xmlschemas/GpxExtensions/v3">        <gpxx:DisplayMode>SymbolAndName</gpxx:DisplayMode>        <gpxx:Address>          <gpxx:StreetAddress>Am Fahrhorstfelde 50</gpxx:StreetAddress>          <gpxx:City>Hannover</gpxx:City>          <gpxx:State>Region Hannover</gpxx:State>          <gpxx:Country>DEU</gpxx:Country>          <gpxx:PostalCode>30629</gpxx:PostalCode>        </gpxx:Address>        <gpxx:PhoneNumber></gpxx:PhoneNumber>      </gpxx:WaypointExtension>    </extensions>  </wpt>  <trk>    <name>Altmarmbüchersee Ostseite</name>    <extensions>      <gpxx:TrackExtension xmlns:gpxx="http://www.garmin.com/xmlschemas/GpxExtensions/v3">        <gpxx:DisplayColor>Cyan</gpxx:DisplayColor>      </gpxx:TrackExtension>    </extensions>    <trkseg>      <trkpt lat="52.418400049209595" lon="9.846147811040282">        <ele>55.890000000000001</ele>        <time>2017-07-19T08:35:12Z</time>      </trkpt>      <trkpt lat="52.418411616235971" lon="9.846170693635941">        <ele>55.890000000000001</ele>        <time>2017-07-19T08:35:13Z</time>      </trkpt>      <trkpt lat="52.418414130806923" lon="9.846193576231599">        <ele>55.890000000000001</ele>        <time>2017-07-19T08:35:14Z</time>      </trkpt>      <trkpt lat="52.418415388092399" lon="9.846212100237608">        <ele>55.890000000000001</ele>        <time>2017-07-19T08:35:15Z</time>      </trkpt>      <trkpt lat="52.418424440547824" lon="9.846242358908057">        <ele>55.890000000000001</ele>        <time>2017-07-19T08:35:16Z</time>      </trkpt>      <trkpt lat="52.418449586257339" lon="9.846280580386519">        <ele>55.890000000000001</ele>        <time>2017-07-19T08:35:26Z</time>      </trkpt>      <trkpt lat="52.418442713096738" lon="9.846281418576837">        <ele>55.890000000000001</ele>        <time>2017-07-19T08:35:55Z</time>      </trkpt>      <trkpt lat="52.418446568772197" lon="9.846387282013893">        <ele>55.890000000000001</ele>        <time>2017-07-19T08:36:18Z</time>      </trkpt>      <trkpt lat="52.418426787480712" lon="9.846852393820882">        <ele>56.859999999999999</ele>        <time>2017-07-19T08:36:31Z</time>      </trkpt>      <trkpt lat="52.418544888496399" lon="9.847412221133709">        <ele>56.859999999999999</ele>        <time>2017-07-19T08:36:43Z</time>      </trkpt>      <trkpt lat="52.418839177116752" lon="9.848377145826817">        <ele>56.859999999999999</ele>        <time>2017-07-19T08:36:59Z</time>      </trkpt>      <trkpt lat="52.419048305600882" lon="9.849070413038135">        <ele>56.369999999999997</ele>        <time>2017-07-19T08:37:11Z</time>      </trkpt>      <trkpt lat="52.41916598752141" lon="9.849368808791041">        <ele>56.369999999999997</ele>        <time>2017-07-19T08:38:18Z</time>      </trkpt>      <trkpt lat="52.41936095058918" lon="9.849974736571312">        <ele>56.859999999999999</ele>        <time>2017-07-19T08:38:30Z</time>      </trkpt>      <trkpt lat="52.419657921418548" lon="9.850600948557258">        <ele>56.859999999999999</ele>        <time>2017-07-19T08:38:42Z</time>      </trkpt>      <trkpt lat="52.420105179771781" lon="9.8511962313205">        <ele>56.859999999999999</ele>        <time>2017-07-19T08:38:55Z</time>      </trkpt>      <trkpt lat="52.420255383476615" lon="9.851544499397278">        <ele>57.340000000000003</ele>        <time>2017-07-19T08:39:01Z</time>      </trkpt>      <trkpt lat="52.420270554721355" lon="9.851621445268393">        <ele>57.340000000000003</ele>        <time>2017-07-19T08:39:02Z</time>      </trkpt>      <trkpt lat="52.420285306870937" lon="9.851705683395267">        <ele>57.340000000000003</ele>        <time>2017-07-19T08:39:03Z</time>      </trkpt>      <trkpt lat="52.420306345447898" lon="9.851878266781569">        <ele>57.340000000000003</ele>        <time>2017-07-19T08:39:05Z</time>      </trkpt>      <trkpt lat="52.420309782028198" lon="9.851962085813284">        <ele>57.340000000000003</ele>        <time>2017-07-19T08:39:06Z</time>      </trkpt>      <trkpt lat="52.420307602733374" lon="9.852044731378555">        <ele>57.340000000000003</ele>        <time>2017-07-19T08:39:07Z</time>      </trkpt>      <trkpt lat="52.420308189466596" lon="9.852128634229302">        <ele>57.340000000000003</ele>        <time>2017-07-19T08:39:08Z</time>      </trkpt>      <trkpt lat="52.420314224436879" lon="9.852209100499749">        <ele>56.859999999999999</ele>        <time>2017-07-19T08:39:09Z</time>      </trkpt>      <trkpt lat="52.420380776748061" lon="9.852849980816245">        <ele>57.340000000000003</ele>        <time>2017-07-19T08:39:21Z</time>      </trkpt>      <trkpt lat="52.420426709577441" lon="9.852910581976175">        <ele>57.340000000000003</ele>        <time>2017-07-19T08:39:34Z</time>      </trkpt>      <trkpt lat="52.420461913570762" lon="9.852910414338112">        <ele>57.340000000000003</ele>        <time>2017-07-19T08:40:04Z</time>      </trkpt>      <trkpt lat="52.420497704297304" lon="9.853027509525418">        <ele>57.340000000000003</ele>        <time>2017-07-19T08:40:38Z</time>      </trkpt>      <trkpt lat="52.420573392882943" lon="9.853671826422215">        <ele>56.859999999999999</ele>        <time>2017-07-19T08:40:51Z</time>      </trkpt>      <trkpt lat="52.420837003737688" lon="9.854701878502965">        <ele>57.340000000000003</ele>        <time>2017-07-19T08:41:09Z</time>      </trkpt>      <trkpt lat="52.420890815556049" lon="9.854851411655545">        <ele>57.340000000000003</ele>        <time>2017-07-19T08:41:19Z</time>      </trkpt>      <trkpt lat="52.420962732285261" lon="9.855061294510961">        <ele>57.340000000000003</ele>        <time>2017-07-19T08:41:38Z</time>      </trkpt>      <trkpt lat="52.421256601810455" lon="9.855728577822447">        <ele>57.340000000000003</ele>        <time>2017-07-19T08:41:53Z</time>      </trkpt>      <trkpt lat="52.421661112457514" lon="9.856484038755298">        <ele>57.340000000000003</ele>        <time>2017-07-19T08:42:09Z</time>      </trkpt>      <trkpt lat="52.421842915937304" lon="9.856792157515883">        <ele>56.859999999999999</ele>        <time>2017-07-19T08:42:17Z</time>      </trkpt>      <trkpt lat="52.422208283096552" lon="9.856990724802017">        <ele>60.219999999999999</ele>        <time>2017-07-19T08:52:51Z</time>      </trkpt>      <trkpt lat="52.422387404367328" lon="9.85720831900835">        <ele>60.219999999999999</ele>        <time>2017-07-19T08:53:00Z</time>      </trkpt>      <trkpt lat="52.422473235055804" lon="9.857555413618684">        <ele>59.740000000000002</ele>        <time>2017-07-19T08:53:05Z</time>      </trkpt>      <trkpt lat="52.422487987205386" lon="9.857628755271435">        <ele>59.740000000000002</ele>        <time>2017-07-19T08:53:06Z</time>      </trkpt>      <trkpt lat="52.42266358807683" lon="9.858688144013286">        <ele>59.740000000000002</ele>        <time>2017-07-19T08:53:20Z</time>      </trkpt>      <trkpt lat="52.422749167308211" lon="9.859199356287718">        <ele>60.219999999999999</ele>        <time>2017-07-19T08:53:28Z</time>      </trkpt>      <trkpt lat="52.422822341322899" lon="9.859686931595206">        <ele>60.219999999999999</ele>        <time>2017-07-19T08:53:35Z</time>      </trkpt>      <trkpt lat="52.422850588336587" lon="9.859890611842275">        <ele>60.700000000000003</ele>        <time>2017-07-19T08:53:38Z</time>      </trkpt>      <trkpt lat="52.422899203374982" lon="9.860084652900696">        <ele>60.700000000000003</ele>        <time>2017-07-19T08:53:41Z</time>      </trkpt>      <trkpt lat="52.422963408753276" lon="9.860298307612538">        <ele>60.700000000000003</ele>        <time>2017-07-19T08:53:44Z</time>      </trkpt>      <trkpt lat="52.423081342130899" lon="9.860633416101337">        <ele>60.219999999999999</ele>        <time>2017-07-19T08:53:49Z</time>      </trkpt>      <trkpt lat="52.423129286617041" lon="9.860756965354085">        <ele>60.219999999999999</ele>        <time>2017-07-19T08:53:51Z</time>      </trkpt>      <trkpt lat="52.423162730410695" lon="9.860814632847905">        <ele>60.219999999999999</ele>        <time>2017-07-19T08:53:52Z</time>      </trkpt>      <trkpt lat="52.423261553049088" lon="9.86098981462419">        <ele>60.219999999999999</ele>        <time>2017-07-19T08:53:55Z</time>      </trkpt>      <trkpt lat="52.423291895538568" lon="9.861055444926024">        <ele>60.219999999999999</ele>        <time>2017-07-19T08:53:56Z</time>      </trkpt>      <trkpt lat="52.423320729285479" lon="9.861120823770762">        <ele>60.219999999999999</ele>        <time>2017-07-19T08:53:57Z</time>      </trkpt>      <trkpt lat="52.423372529447079" lon="9.861253006383777">        <ele>60.219999999999999</ele>        <time>2017-07-19T08:53:59Z</time>      </trkpt>      <trkpt lat="52.423556009307504" lon="9.861979046836495">        <ele>60.219999999999999</ele>        <time>2017-07-19T08:54:10Z</time>      </trkpt>      <trkpt lat="52.423729933798313" lon="9.862372493371368">        <ele>59.740000000000002</ele>        <time>2017-07-19T08:54:17Z</time>      </trkpt>      <trkpt lat="52.423760443925858" lon="9.862430999055505">        <ele>60.219999999999999</ele>        <time>2017-07-19T08:54:18Z</time>      </trkpt>      <trkpt lat="52.423998154699802" lon="9.862816482782364">        <ele>59.259999999999998</ele>        <time>2017-07-19T08:54:25Z</time>      </trkpt>      <trkpt lat="52.424153219908476" lon="9.863004069775343">        <ele>59.259999999999998</ele>        <time>2017-07-19T08:54:33Z</time>      </trkpt>      <trkpt lat="52.424566866829991" lon="9.86331126652658">        <ele>59.740000000000002</ele>        <time>2017-07-19T08:54:46Z</time>      </trkpt>      <trkpt lat="52.424899879842997" lon="9.863499188795686">        <ele>59.259999999999998</ele>        <time>2017-07-19T08:54:54Z</time>      </trkpt>      <trkpt lat="52.424944723024964" lon="9.863506983965635">        <ele>59.740000000000002</ele>        <time>2017-07-19T08:54:55Z</time>      </trkpt>      <trkpt lat="52.425560038536787" lon="9.863637993112207">        <ele>59.259999999999998</ele>        <time>2017-07-19T08:55:08Z</time>      </trkpt>      <trkpt lat="52.426023641601205" lon="9.863805463537574">        <ele>59.259999999999998</ele>        <time>2017-07-19T08:55:18Z</time>      </trkpt>      <trkpt lat="52.426071083173156" lon="9.863820215687156">        <ele>59.259999999999998</ele>        <time>2017-07-19T08:55:19Z</time>      </trkpt>      <trkpt lat="52.426608446985483" lon="9.8639474529773">        <ele>59.259999999999998</ele>        <time>2017-07-19T08:55:32Z</time>      </trkpt>      <trkpt lat="52.426755046471953" lon="9.863914344459772"/>      <trkpt lat="52.42707003839314" lon="9.863803116604686">        <ele>58.780000000000001</ele>        <time>2017-07-19T08:58:45Z</time>      </trkpt>      <trkpt lat="52.427507070824504" lon="9.863488208502531">        <ele>58.780000000000001</ele>        <time>2017-07-19T08:58:57Z</time>      </trkpt>      <trkpt lat="52.427756767719984" lon="9.862945312634111">        <ele>58.780000000000001</ele>        <time>2017-07-19T08:59:08Z</time>      </trkpt>      <trkpt lat="52.427870342507958" lon="9.862369308248162">        <ele>58.299999999999997</ele>        <time>2017-07-19T08:59:18Z</time>      </trkpt>      <trkpt lat="52.427861457690597" lon="9.862086586654186">        <ele>57.82</ele>        <time>2017-07-19T08:59:27Z</time>      </trkpt>      <trkpt lat="52.427852489054203" lon="9.861922217532992">        <ele>57.340000000000003</ele>        <time>2017-07-19T08:59:55Z</time>      </trkpt>      <trkpt lat="52.427843771874905" lon="9.861904280260205">        <ele>57.340000000000003</ele>        <time>2017-07-19T09:00:29Z</time>      </trkpt>      <trkpt lat="52.427884256467223" lon="9.861689703539014">        <ele>57.340000000000003</ele>        <time>2017-07-19T09:00:49Z</time>      </trkpt>      <trkpt lat="52.427877383306623" lon="9.861554754897952">        <ele>57.340000000000003</ele>        <time>2017-07-19T09:00:53Z</time>      </trkpt>      <trkpt lat="52.427875455468893" lon="9.86151996999979">        <ele>57.340000000000003</ele>        <time>2017-07-19T09:00:54Z</time>      </trkpt>      <trkpt lat="52.427790211513638" lon="9.861061479896307">        <ele>57.340000000000003</ele>        <time>2017-07-19T09:01:05Z</time>      </trkpt>      <trkpt lat="52.427614443004131" lon="9.860485224053264">        <ele>56.859999999999999</ele>        <time>2017-07-19T09:01:17Z</time>      </trkpt>      <trkpt lat="52.42743213661015" lon="9.860189342871308">        <ele>57.340000000000003</ele>        <time>2017-07-19T09:01:27Z</time>      </trkpt>      <trkpt lat="52.427228037267923" lon="9.859805703163147">        <ele>57.340000000000003</ele>        <time>2017-07-19T09:01:38Z</time>      </trkpt>      <trkpt lat="52.427086550742388" lon="9.859461793676019"/>    </trkseg>  </trk>  <trk>    <name>Natura Trail 12</name>    <extensions>      <gpxx:TrackExtension xmlns:gpxx="http://www.garmin.com/xmlschemas/GpxExtensions/v3">        <gpxx:DisplayColor>Magenta</gpxx:DisplayColor>      </gpxx:TrackExtension>    </extensions>    <trkseg>      <trkpt lat="52.391421468928456" lon="10.085244365036488"/>      <trkpt lat="52.391735874116421" lon="10.086391177028418"/>      <trkpt lat="52.390208775177598" lon="10.091910241171718"/>      <trkpt lat="52.392813870683312" lon="10.097830630838871"/>      <trkpt lat="52.39448488689959" lon="10.096583487465978"/>      <trkpt lat="52.394493855535984" lon="10.096583487465978"/>      <trkpt lat="52.395473029464483" lon="10.100324917584658"/>      <trkpt lat="52.395374206826091" lon="10.100840991362929"/>      <trkpt lat="52.395122749730945" lon="10.101285399869084"/>      <trkpt lat="52.395032895728946" lon="10.101285399869084"/>      <trkpt lat="52.395715601742268" lon="10.098690697923303"/>      <trkpt lat="52.395823393017054" lon="10.097171226516366"/>      <trkpt lat="52.39574259147048" lon="10.096468823030591"/>      <trkpt lat="52.395708560943604" lon="10.095705986022949"/>      <trkpt lat="52.398626804351807" lon="10.093581676483154"/>      <trkpt lat="52.400815486907959" lon="10.0919508934021"/>      <trkpt lat="52.400879859924316" lon="10.091886520385742"/>      <trkpt lat="52.403004169464111" lon="10.090384483337402"/>      <trkpt lat="52.406694889068604" lon="10.087659358978271"/>      <trkpt lat="52.406995296478271" lon="10.08744478225708"/>      <trkpt lat="52.407445907592773" lon="10.087165832519531"/>      <trkpt lat="52.407746315002441" lon="10.086801052093506"/>      <trkpt lat="52.408647537231445" lon="10.083818435668945"/>      <trkpt lat="52.409248352050781" lon="10.084633827209473"/>      <trkpt lat="52.409460581839085" lon="10.084916716441512"/>      <trkpt lat="52.409441471099854" lon="10.08495569229126"/>      <trkpt lat="52.409763336181641" lon="10.085320472717285"/>      <trkpt lat="52.409248352050781" lon="10.084633827209473"/>      <trkpt lat="52.408647537231445" lon="10.083818435668945"/>      <trkpt lat="52.408690452575684" lon="10.083539485931396"/>      <trkpt lat="52.409934997558594" lon="10.079076290130615"/>      <trkpt lat="52.406373023986816" lon="10.076608657836914"/>      <trkpt lat="52.406222820281982" lon="10.069742202758789"/>      <trkpt lat="52.406158447265625" lon="10.066308975219727"/>      <trkpt lat="52.405343055725098" lon="10.066351890563965"/>      <trkpt lat="52.402961254119873" lon="10.06648063659668"/>      <trkpt lat="52.401673793792725" lon="10.066566467285156"/>      <trkpt lat="52.399592399597168" lon="10.066673755645752"/>      <trkpt lat="52.399635314941406" lon="10.064914226531982"/>      <trkpt lat="52.399613857269287" lon="10.063025951385498"/>      <trkpt lat="52.399678230285645" lon="10.058605670928955"/>      <trkpt lat="52.399678230285645" lon="10.058155059814453"/>      <trkpt lat="52.399656772613525" lon="10.056931972503662"/>      <trkpt lat="52.399678230285645" lon="10.05622386932373"/>      <trkpt lat="52.399742603302002" lon="10.05622386932373"/>      <trkpt lat="52.399742603302002" lon="10.056159496307373"/>      <trkpt lat="52.399849891662598" lon="10.055880546569824"/>      <trkpt lat="52.400343418121338" lon="10.054721832275391"/>      <trkpt lat="52.401394844055176" lon="10.052275657653809"/>      <trkpt lat="52.401416301727295" lon="10.052211284637451"/>      <trkpt lat="52.404248714447021" lon="10.045409202575684"/>      <trkpt lat="52.404978275299072" lon="10.043692588806152"/>      <trkpt lat="52.405471801757812" lon="10.0425124168396"/>      <trkpt lat="52.405643463134766" lon="10.042061805725098"/>      <trkpt lat="52.406458854675293" lon="10.040109157562256"/>      <trkpt lat="52.407252788543701" lon="10.038220882415771"/>      <trkpt lat="52.407875061035156" lon="10.036718845367432"/>      <trkpt lat="52.407317161560059" lon="10.031654834747314"/>      <trkpt lat="52.407188415527344" lon="10.030281543731689"/>      <trkpt lat="52.407317161560059" lon="10.025582313537598"/>      <trkpt lat="52.407445907592773" lon="10.022192001342773"/>      <trkpt lat="52.407553195953369" lon="10.018930435180664"/>      <trkpt lat="52.407724857330322" lon="10.014081001281738"/>      <trkpt lat="52.408304214477539" lon="9.997901916503906"/>      <trkpt lat="52.408325672149658" lon="9.997086524963379"/>      <trkpt lat="52.408432960510254" lon="9.993867874145508"/>      <trkpt lat="52.408454418182373" lon="9.993095397949219"/>      <trkpt lat="52.408475875854492" lon="9.992365837097168"/>      <trkpt lat="52.408561706542969" lon="9.992258548736572"/>      <trkpt lat="52.408862113952637" lon="9.992043972015381"/>      <trkpt lat="52.40952730178833" lon="9.991593360900879"/>      <trkpt lat="52.409591674804688" lon="9.991550445556641"/>      <trkpt lat="52.410063743591309" lon="9.991250038146973"/>      <trkpt lat="52.410321235656738" lon="9.99107837677002"/>      <trkpt lat="52.4102783203125" lon="9.990477561950684"/>      <trkpt lat="52.410149574279785" lon="9.989104270935059"/>      <trkpt lat="52.410042285919189" lon="9.987902641296387"/>      <trkpt lat="52.410106658935547" lon="9.987924098968506"/>      <trkpt lat="52.410449981689453" lon="9.98807430267334"/>      <trkpt lat="52.410492897033691" lon="9.988095760345459"/>      <trkpt lat="52.410600185394287" lon="9.988138675689697"/>      <trkpt lat="52.410728931427002" lon="9.988203048706055"/>      <trkpt lat="52.410836219787598" lon="9.988288879394531"/>      <trkpt lat="52.411136627197266" lon="9.988503456115723"/>      <trkpt lat="52.411501407623291" lon="9.988803863525391"/>      <trkpt lat="52.411544322967529" lon="9.98882532119751"/>      <trkpt lat="52.411758899688721" lon="9.98807430267334"/>      <trkpt lat="52.412381172180176" lon="9.986593723297119"/>      <trkpt lat="52.412467002868652" lon="9.986400604248047"/>      <trkpt lat="52.412509918212891" lon="9.98631477355957"/>      <trkpt lat="52.413561344146729" lon="9.983890056610107"/>      <trkpt lat="52.413947582244873" lon="9.983117580413818"/>      <trkpt lat="52.414097785949707" lon="9.983010292053223"/>      <trkpt lat="52.414205074310303" lon="9.983010292053223"/>      <trkpt lat="52.414548397064209" lon="9.983117580413818"/>      <trkpt lat="52.415041923522949" lon="9.98333215713501"/>      <trkpt lat="52.415256500244141" lon="9.983396530151367"/>      <trkpt lat="52.415642738342285" lon="9.983482360839844"/>      <trkpt lat="52.416243553161621" lon="9.983718395233154"/>      <trkpt lat="52.416415214538574" lon="9.983761310577393"/>      <trkpt lat="52.416436672210693" lon="9.983546733856201"/>      <trkpt lat="52.416458129882813" lon="9.983310699462891"/>      <trkpt lat="52.416436672210693" lon="9.983117580413818"/>      <trkpt lat="52.416393756866455" lon="9.982967376708984"/>      <trkpt lat="52.416243553161621" lon="9.982731342315674"/>      <trkpt lat="52.415857315063477" lon="9.982151985168457"/>      <trkpt lat="52.415771484375" lon="9.981937408447266"/>      <trkpt lat="52.415707111358643" lon="9.981744289398193"/>      <trkpt lat="52.415685653686523" lon="9.981529712677002"/>      <trkpt lat="52.415685653686523" lon="9.981164932250977"/>      <trkpt lat="52.415707111358643" lon="9.980628490447998"/>      <trkpt lat="52.415750026702881" lon="9.980134963989258"/>      <trkpt lat="52.415814399719238" lon="9.979448318481445"/>      <trkpt lat="52.415878772735596" lon="9.978783130645752"/>      <trkpt lat="52.415943145751953" lon="9.97859001159668"/>      <trkpt lat="52.415986061096191" lon="9.978504180908203"/>      <trkpt lat="52.416050434112549" lon="9.978568553924561"/>      <trkpt lat="52.416114807128906" lon="9.978632926940918"/>      <trkpt lat="52.416329383850098" lon="9.977903366088867"/>      <trkpt lat="52.416672706604004" lon="9.976272583007813"/>      <trkpt lat="52.417981624603271" lon="9.969642162322998"/>      <trkpt lat="52.419934272766113" lon="9.96110200881958"/>      <trkpt lat="52.420384883880615" lon="9.957690238952637"/>      <trkpt lat="52.420427799224854" lon="9.957411289215088"/>      <trkpt lat="52.42051362991333" lon="9.956724643707275"/>      <trkpt lat="52.420659558847547" lon="9.955612029880285"/>      <trkpt lat="52.420856952667236" lon="9.95410680770874"/>      <trkpt lat="52.420835494995117" lon="9.953956604003906"/>      <trkpt lat="52.420835494995117" lon="9.953784942626953"/>      <trkpt lat="52.420792579650879" lon="9.953591823577881"/>      <trkpt lat="52.420663833618164" lon="9.953291416168213"/>      <trkpt lat="52.420578002929688" lon="9.953162670135498"/>      <trkpt lat="52.420620918273926" lon="9.953076839447022"/>      <trkpt lat="52.420620918273926" lon="9.952690601348877"/>      <trkpt lat="52.420749664306641" lon="9.951252937316895"/>      <trkpt lat="52.421178817749023" lon="9.951210021972656"/>      <trkpt lat="52.421178817749023" lon="9.950973987579346"/>      <trkpt lat="52.421114444732666" lon="9.950523376464844"/>      <trkpt lat="52.421050071716309" lon="9.950287342071533"/>      <trkpt lat="52.419333457946777" lon="9.94638204574585"/>      <trkpt lat="52.418410778045654" lon="9.944279193878174"/>      <trkpt lat="52.418067455291748" lon="9.943356513977051"/>      <trkpt lat="52.416350841522217" lon="9.938786029815674"/>      <trkpt lat="52.41626501083374" lon="9.938850402832031"/>      <trkpt lat="52.414698600769043" lon="9.936060905456543"/>      <trkpt lat="52.412509918212891" lon="9.932370185852051"/>      <trkpt lat="52.412059307098389" lon="9.931747913360596"/>      <trkpt lat="52.411973476409912" lon="9.931640625"/>      <trkpt lat="52.409634590148926" lon="9.928421974182129"/>      <trkpt lat="52.409150199964643" lon="9.928174708038569"/>      <trkpt lat="52.408583164215088" lon="9.92788553237915"/>      <trkpt lat="52.408261299133301" lon="9.92790699005127"/>      <trkpt lat="52.406222820281982" lon="9.928464889526367"/>      <trkpt lat="52.405819399282336" lon="9.924485748633742"/>      <trkpt lat="52.405750751495361" lon="9.923808574676514"/>      <trkpt lat="52.405750751495361" lon="9.923508167266846"/>      <trkpt lat="52.40577220916748" lon="9.923293590545654"/>      <trkpt lat="52.40753173828125" lon="9.916148185729981"/>      <trkpt lat="52.407445907592773" lon="9.915890693664551"/>      <trkpt lat="52.406265735626221" lon="9.915311336517334"/>      <trkpt lat="52.405922412872314" lon="9.915246963500977"/>      <trkpt lat="52.405450344085693" lon="9.915139675140381"/>      <trkpt lat="52.405107021331787" lon="9.915075302124023"/>      <trkpt lat="52.404549121856689" lon="9.914796352386475"/>      <trkpt lat="52.404205799102783" lon="9.91466760635376"/>      <trkpt lat="52.403390407562256" lon="9.914517402648926"/>      <trkpt lat="52.40304708480835" lon="9.914388656616211"/>      <trkpt lat="52.401158809661865" lon="9.915547370910645"/>      <trkpt lat="52.398197650909424" lon="9.917349815368652"/>      <trkpt lat="52.398712635040283" lon="9.91140604019165"/>      <trkpt lat="52.399163246154785" lon="9.909217357635498"/>      <trkpt lat="52.399914264678955" lon="9.905762672424316"/>      <trkpt lat="52.40027904510498" lon="9.904818534851074"/>      <trkpt lat="52.401158809661865" lon="9.902415275573731"/>      <trkpt lat="52.401158809661865" lon="9.902329444885254"/>      <trkpt lat="52.401223182678223" lon="9.902071952819824"/>      <trkpt lat="52.401394844055176" lon="9.901514053344727"/>      <trkpt lat="52.40203857421875" lon="9.899604320526123"/>      <trkpt lat="52.402145862579346" lon="9.899325370788574"/>      <trkpt lat="52.40229606628418" lon="9.898896217346191"/>      <trkpt lat="52.402403354644775" lon="9.898595809936523"/>      <trkpt lat="52.403004169464111" lon="9.896965026855469"/>      <trkpt lat="52.403197288513184" lon="9.896471500396729"/>      <trkpt lat="52.403304576873779" lon="9.896214008331299"/>      <trkpt lat="52.403883934020996" lon="9.894540309906006"/>      <trkpt lat="52.404484748840332" lon="9.892888069152832"/>      <trkpt lat="52.404613494873047" lon="9.892587661743164"/>      <trkpt lat="52.404870986938477" lon="9.891815185546875"/>      <trkpt lat="52.404956817626953" lon="9.891471862792969"/>      <trkpt lat="52.405149936676025" lon="9.890162944793701"/>      <trkpt lat="52.405128479003906" lon="9.889969825744629"/>      <trkpt lat="52.40478515625" lon="9.886000156402588"/>      <trkpt lat="52.404699325561523" lon="9.885399341583252"/>      <trkpt lat="52.404634952545166" lon="9.885077476501465"/>      <trkpt lat="52.404012680053711" lon="9.88245964050293"/>      <trkpt lat="52.403905391693115" lon="9.882009029388428"/>      <trkpt lat="52.403669357299805" lon="9.881064891815186"/>      <trkpt lat="52.403433322906494" lon="9.880056381225586"/>      <trkpt lat="52.403240203857422" lon="9.87896203994751"/>      <trkpt lat="52.403068542480469" lon="9.877910614013672"/>      <trkpt lat="52.402939796447754" lon="9.877309799194336"/>      <trkpt lat="52.40278959274292" lon="9.876902103424072"/>      <trkpt lat="52.402317523956299" lon="9.875528812408447"/>      <trkpt lat="52.402231693267822" lon="9.875249862670898"/>      <trkpt lat="52.40203857421875" lon="9.873769283294678"/>      <trkpt lat="52.40203857421875" lon="9.873533248901367"/>      <trkpt lat="52.402081489562988" lon="9.873275756835938"/>      <trkpt lat="52.402360439300537" lon="9.871258735656738"/>      <trkpt lat="52.402360439300537" lon="9.870893955230713"/>      <trkpt lat="52.402317523956299" lon="9.870765209197998"/>      <trkpt lat="52.401931285858154" lon="9.869885444641113"/>      <trkpt lat="52.401802539825439" lon="9.869627952575684"/>      <trkpt lat="52.401652336120605" lon="9.869134426116943"/>      <trkpt lat="52.401587963104248" lon="9.868898391723633"/>      <trkpt lat="52.40154504776001" lon="9.86872673034668"/>      <trkpt lat="52.401459217071533" lon="9.868018627166748"/>      <trkpt lat="52.401158809661865" lon="9.86497163772583"/>      <trkpt lat="52.400665283203125" lon="9.85999345779419"/>      <trkpt lat="52.400622367858887" lon="9.859757423400879"/>      <trkpt lat="52.40053653717041" lon="9.859542846679688"/>      <trkpt lat="52.400150299072266" lon="9.858813285827637"/>      <trkpt lat="52.400085926055908" lon="9.858684539794922"/>      <trkpt lat="52.399442195892334" lon="9.85748291015625"/>      <trkpt lat="52.399077415466309" lon="9.856860637664795"/>      <trkpt lat="52.398905754089355" lon="9.856538772583008"/>      <trkpt lat="52.398884296417236" lon="9.85647439956665"/>      <trkpt lat="52.39879846572876" lon="9.856388568878174"/>      <trkpt lat="52.400085926055908" lon="9.855444431304932"/>      <trkpt lat="52.400858402252197" lon="9.854886531829834"/>      <trkpt lat="52.401952743530273" lon="9.853856563568115"/>      <trkpt lat="52.402188777923584" lon="9.853620529174805"/>      <trkpt lat="52.40278959274292" lon="9.853019714355469"/>      <trkpt lat="52.404141426086426" lon="9.851710796356201"/>      <trkpt lat="52.403519153594971" lon="9.849543571472168"/>      <trkpt lat="52.403090000152588" lon="9.849758148193359"/>      <trkpt lat="52.402982711791992" lon="9.849843978881836"/>      <trkpt lat="52.402982711791992" lon="9.849843978881836"/>      <trkpt lat="52.402977263554931" lon="9.849841883406043"/>      <trkpt lat="52.40281549282372" lon="9.849833333864808"/>      <trkpt lat="52.402813732624054" lon="9.84983048401773"/>      <trkpt lat="52.402693368494511" lon="9.849486406892538"/>      <trkpt lat="52.402531681582332" lon="9.849638370797038"/>      <trkpt lat="52.402432691305876" lon="9.849618673324585">        <ele>55.409999999999997</ele>        <time>2017-07-19T08:22:16Z</time>      </trkpt>      <trkpt lat="52.402217276394367" lon="9.849255904555321">        <ele>55.409999999999997</ele>        <time>2017-07-19T08:22:31Z</time>      </trkpt>      <trkpt lat="52.402020301669836" lon="9.848797414451838">        <ele>55.409999999999997</ele>        <time>2017-07-19T08:22:45Z</time>      </trkpt>      <trkpt lat="52.401970596984029" lon="9.848650982603431">        <ele>55.409999999999997</ele>        <time>2017-07-19T08:22:50Z</time>      </trkpt>      <trkpt lat="52.401930363848805" lon="9.84853413887322">        <ele>55.890000000000001</ele>        <time>2017-07-19T08:23:09Z</time>      </trkpt>      <trkpt lat="52.401928184553981" lon="9.848519554361701">        <ele>55.890000000000001</ele>        <time>2017-07-19T08:23:36Z</time>      </trkpt>      <trkpt lat="52.401925586163998" lon="9.848458869382739">        <ele>55.890000000000001</ele>        <time>2017-07-19T08:23:45Z</time>      </trkpt>      <trkpt lat="52.40251399576664" lon="9.847814468666911"/>      <trkpt lat="52.403078516945243" lon="9.846857255324721">        <ele>55.409999999999997</ele>        <time>2017-07-19T08:24:33Z</time>      </trkpt>      <trkpt lat="52.403483195230365" lon="9.846256859600544">        <ele>54.93</ele>        <time>2017-07-19T08:24:48Z</time>      </trkpt>      <trkpt lat="52.403690479695797" lon="9.845933988690376">        <ele>55.890000000000001</ele>        <time>2017-07-19T08:24:58Z</time>      </trkpt>      <trkpt lat="52.403711685910821" lon="9.845900293439627">        <ele>55.890000000000001</ele>        <time>2017-07-19T08:25:12Z</time>      </trkpt>      <trkpt lat="52.403805563226342" lon="9.845759309828281">        <ele>55.890000000000001</ele>        <time>2017-07-19T08:25:39Z</time>      </trkpt>      <trkpt lat="52.404045704752207" lon="9.845443312078714">        <ele>55.890000000000001</ele>        <time>2017-07-19T08:25:51Z</time>      </trkpt>      <trkpt lat="52.404414005577564" lon="9.844908714294434">        <ele>56.369999999999997</ele>        <time>2017-07-19T08:26:04Z</time>      </trkpt>      <trkpt lat="52.404569825157523" lon="9.84467938542366">        <ele>55.890000000000001</ele>        <time>2017-07-19T08:26:09Z</time>      </trkpt>      <trkpt lat="52.404911387711763" lon="9.844213938340545">        <ele>55.890000000000001</ele>        <time>2017-07-19T08:26:21Z</time>      </trkpt>      <trkpt lat="52.405302068218589" lon="9.843674059957266">        <ele>55.890000000000001</ele>        <time>2017-07-19T08:26:33Z</time>      </trkpt>      <trkpt lat="52.405596859753132" lon="9.843260245397687">        <ele>55.890000000000001</ele>        <time>2017-07-19T08:26:42Z</time>      </trkpt>      <trkpt lat="52.405673386529088" lon="9.843163099139929">        <ele>55.890000000000001</ele>        <time>2017-07-19T08:26:44Z</time>      </trkpt>      <trkpt lat="52.405743794515729" lon="9.843068132176995">        <ele>55.409999999999997</ele>        <time>2017-07-19T08:26:46Z</time>      </trkpt>      <trkpt lat="52.405783021822572" lon="9.843025049194694">        <ele>55.890000000000001</ele>        <time>2017-07-19T08:26:47Z</time>      </trkpt>      <trkpt lat="52.40613766014576" lon="9.842543257400394">        <ele>56.859999999999999</ele>        <time>2017-07-19T08:26:57Z</time>      </trkpt>      <trkpt lat="52.406270848587155" lon="9.842347707599402">        <ele>56.369999999999997</ele>        <time>2017-07-19T08:27:01Z</time>      </trkpt>      <trkpt lat="52.40668055601418" lon="9.841735409572721">        <ele>55.890000000000001</ele>        <time>2017-07-19T08:27:13Z</time>      </trkpt>      <trkpt lat="52.406892450526357" lon="9.841409521177411">        <ele>55.890000000000001</ele>        <time>2017-07-19T08:27:20Z</time>      </trkpt>      <trkpt lat="52.406997056677938" lon="9.841267112642527">        <ele>55.409999999999997</ele>        <time>2017-07-19T08:27:23Z</time>      </trkpt>      <trkpt lat="52.407137872651219" lon="9.841106263920665">        <ele>55.409999999999997</ele>        <time>2017-07-19T08:27:27Z</time>      </trkpt>      <trkpt lat="52.407177099958062" lon="9.841063683852553">        <ele>55.409999999999997</ele>        <time>2017-07-19T08:27:28Z</time>      </trkpt>      <trkpt lat="52.40721557289362" lon="9.841015320271254">        <ele>55.409999999999997</ele>        <time>2017-07-19T08:27:29Z</time>      </trkpt>      <trkpt lat="52.407366028055549" lon="9.840821446850896">        <ele>54.93</ele>        <time>2017-07-19T08:27:33Z</time>      </trkpt>      <trkpt lat="52.407402321696281" lon="9.840773083269596">        <ele>55.409999999999997</ele>        <time>2017-07-19T08:27:34Z</time>      </trkpt>      <trkpt lat="52.407434256747365" lon="9.840727234259248">        <ele>54.93</ele>        <time>2017-07-19T08:27:35Z</time>      </trkpt>      <trkpt lat="52.40750340744853" lon="9.840617682784796">        <ele>54.450000000000003</ele>        <time>2017-07-19T08:27:37Z</time>      </trkpt>      <trkpt lat="52.407893249765038" lon="9.840073278173804">        <ele>54.450000000000003</ele>        <time>2017-07-19T08:27:49Z</time>      </trkpt>      <trkpt lat="52.407925017178059" lon="9.840072859078646">        <ele>54.450000000000003</ele>        <time>2017-07-19T08:27:50Z</time>      </trkpt>      <trkpt lat="52.40795686841011" lon="9.840095322579145">        <ele>54.450000000000003</ele>        <time>2017-07-19T08:27:51Z</time>      </trkpt>      <trkpt lat="52.408153424039483" lon="9.840451972559094">        <ele>54.450000000000003</ele>        <time>2017-07-19T08:28:01Z</time>      </trkpt>      <trkpt lat="52.408418795093894" lon="9.840952958911657">        <ele>54.450000000000003</ele>        <time>2017-07-19T08:28:12Z</time>      </trkpt>      <trkpt lat="52.408704785630107" lon="9.841534495353699">        <ele>53.969999999999999</ele>        <time>2017-07-19T08:28:24Z</time>      </trkpt>      <trkpt lat="52.409051042050123" lon="9.842092730104923">        <ele>53.969999999999999</ele>        <time>2017-07-19T08:28:36Z</time>      </trkpt>      <trkpt lat="52.409584717825055" lon="9.84225089661777">        <ele>53.969999999999999</ele>        <time>2017-07-19T08:28:49Z</time>      </trkpt>      <trkpt lat="52.410155609250069" lon="9.842277383431792">        <ele>54.450000000000003</ele>        <time>2017-07-19T08:29:05Z</time>      </trkpt>      <trkpt lat="52.410596748813987" lon="9.842150313779712">        <ele>54.450000000000003</ele>        <time>2017-07-19T08:29:17Z</time>      </trkpt>      <trkpt lat="52.410781066864729" lon="9.842030955478549">        <ele>54.450000000000003</ele>        <time>2017-07-19T08:29:21Z</time>      </trkpt>      <trkpt lat="52.410843847319484" lon="9.84198016114533">        <ele>54.450000000000003</ele>        <time>2017-07-19T08:29:22Z</time>      </trkpt>      <trkpt lat="52.411651946604252" lon="9.841532567515969">        <ele>54.450000000000003</ele>        <time>2017-07-19T08:29:39Z</time>      </trkpt>      <trkpt lat="52.411747332662344" lon="9.841496022418141">        <ele>54.450000000000003</ele>        <time>2017-07-19T08:29:41Z</time>      </trkpt>      <trkpt lat="52.412348315119743" lon="9.841194022446871">        <ele>53.969999999999999</ele>        <time>2017-07-19T08:29:54Z</time>      </trkpt>      <trkpt lat="52.41244831122458" lon="9.841155298054218">        <ele>53.969999999999999</ele>        <time>2017-07-19T08:29:56Z</time>      </trkpt>      <trkpt lat="52.413074523210526" lon="9.840848604217172">        <ele>54.450000000000003</ele>        <time>2017-07-19T08:30:09Z</time>      </trkpt>      <trkpt lat="52.413118109107018" lon="9.840830080211163">        <ele>54.450000000000003</ele>        <time>2017-07-19T08:30:10Z</time>      </trkpt>      <trkpt lat="52.413285579532385" lon="9.840764030814171">        <ele>54.450000000000003</ele>        <time>2017-07-19T08:30:14Z</time>      </trkpt>      <trkpt lat="52.413327153772116" lon="9.840772161260247">        <ele>54.450000000000003</ele>        <time>2017-07-19T08:30:15Z</time>      </trkpt>      <trkpt lat="52.413360932841897" lon="9.840804934501648">        <ele>54.450000000000003</ele>        <time>2017-07-19T08:30:16Z</time>      </trkpt>      <trkpt lat="52.413386832922697" lon="9.840857069939375">        <ele>54.450000000000003</ele>        <time>2017-07-19T08:30:17Z</time>      </trkpt>      <trkpt lat="52.413402171805501" lon="9.84092035330832">        <ele>54.450000000000003</ele>        <time>2017-07-19T08:30:18Z</time>      </trkpt>      <trkpt lat="52.413412984460592" lon="9.84098581597209">        <ele>54.450000000000003</ele>        <time>2017-07-19T08:30:19Z</time>      </trkpt>      <trkpt lat="52.413423797115684" lon="9.841050021350384">        <ele>54.450000000000003</ele>        <time>2017-07-19T08:30:20Z</time>      </trkpt>      <trkpt lat="52.413446763530374" lon="9.841180024668574">        <ele>54.93</ele>        <time>2017-07-19T08:30:22Z</time>      </trkpt>      <trkpt lat="52.413477106019855" lon="9.841307932510972">        <ele>54.450000000000003</ele>        <time>2017-07-19T08:30:24Z</time>      </trkpt>      <trkpt lat="52.413496552035213" lon="9.841373646631837">        <ele>54.450000000000003</ele>        <time>2017-07-19T08:30:25Z</time>      </trkpt>      <trkpt lat="52.413524882867932" lon="9.84151161275804">        <ele>54.450000000000003</ele>        <time>2017-07-19T08:30:27Z</time>      </trkpt>      <trkpt lat="52.413587663322687" lon="9.84187706373632">        <ele>54.93</ele>        <time>2017-07-19T08:30:32Z</time>      </trkpt>      <trkpt lat="52.413608450442553" lon="9.842020310461521">        <ele>54.93</ele>        <time>2017-07-19T08:30:34Z</time>      </trkpt>      <trkpt lat="52.413632590323687" lon="9.842169424518943">        <ele>54.93</ele>        <time>2017-07-19T08:30:36Z</time>      </trkpt>      <trkpt lat="52.413649270310998" lon="9.84232516027987">        <ele>54.93</ele>        <time>2017-07-19T08:30:38Z</time>      </trkpt>      <trkpt lat="52.413766700774431" lon="9.843013817444444">        <ele>54.450000000000003</ele>        <time>2017-07-19T08:30:47Z</time>      </trkpt>      <trkpt lat="52.413768377155066" lon="9.843086572363973">        <ele>54.450000000000003</ele>        <time>2017-07-19T08:30:48Z</time>      </trkpt>      <trkpt lat="52.413762928918004" lon="9.843292851001024">        <ele>54.450000000000003</ele>        <time>2017-07-19T08:30:51Z</time>      </trkpt>      <trkpt lat="52.413769382983446" lon="9.843361498787999">        <ele>54.93</ele>        <time>2017-07-19T08:30:52Z</time>      </trkpt>      <trkpt lat="52.41377935744822" lon="9.843403240665793">        <ele>55.409999999999997</ele>        <time>2017-07-19T08:30:53Z</time>      </trkpt>      <trkpt lat="52.413790840655565" lon="9.843448251485825">        <ele>55.409999999999997</ele>        <time>2017-07-19T08:30:54Z</time>      </trkpt>      <trkpt lat="52.413798468187451" lon="9.843492256477475">        <ele>55.890000000000001</ele>        <time>2017-07-19T08:30:55Z</time>      </trkpt>      <trkpt lat="52.413806514814496" lon="9.843532154336572">        <ele>56.369999999999997</ele>        <time>2017-07-19T08:30:56Z</time>      </trkpt>      <trkpt lat="52.413818165659904" lon="9.8435686994344">        <ele>56.369999999999997</ele>        <time>2017-07-19T08:30:57Z</time>      </trkpt>      <trkpt lat="52.413831744343042" lon="9.84360633417964">        <ele>56.859999999999999</ele>        <time>2017-07-19T08:30:58Z</time>      </trkpt>      <trkpt lat="52.413849262520671" lon="9.843645645305514">        <ele>57.340000000000003</ele>        <time>2017-07-19T08:30:59Z</time>      </trkpt>      <trkpt lat="52.414069790393114" lon="9.844054011628032">        <ele>60.700000000000003</ele>        <time>2017-07-19T08:31:08Z</time>      </trkpt>      <trkpt lat="52.414409760385752" lon="9.844611072912812">        <ele>63.100000000000001</ele>        <time>2017-07-19T08:31:22Z</time>      </trkpt>      <trkpt lat="52.414565915241838" lon="9.844883317127824">        <ele>62.140000000000001</ele>        <time>2017-07-19T08:31:28Z</time>      </trkpt>      <trkpt lat="52.414783257991076" lon="9.845229741185904">        <ele>60.219999999999999</ele>        <time>2017-07-19T08:31:34Z</time>      </trkpt>      <trkpt lat="52.414822988212109" lon="9.845266873016954">        <ele>60.219999999999999</ele>        <time>2017-07-19T08:31:35Z</time>      </trkpt>      <trkpt lat="52.414863053709269" lon="9.845294449478388">        <ele>59.259999999999998</ele>        <time>2017-07-19T08:31:36Z</time>      </trkpt>      <trkpt lat="52.414903119206429" lon="9.845311967656016">        <ele>59.259999999999998</ele>        <time>2017-07-19T08:31:37Z</time>      </trkpt>      <trkpt lat="52.414946118369699" lon="9.845317583531141">        <ele>58.780000000000001</ele>        <time>2017-07-19T08:31:38Z</time>      </trkpt>      <trkpt lat="52.414989955723286" lon="9.845313057303429">        <ele>58.299999999999997</ele>        <time>2017-07-19T08:31:39Z</time>      </trkpt>      <trkpt lat="52.415033122524619" lon="9.845295203849673">        <ele>58.299999999999997</ele>        <time>2017-07-19T08:31:40Z</time>      </trkpt>      <trkpt lat="52.415073607116938" lon="9.84526569955051">        <ele>57.82</ele>        <time>2017-07-19T08:31:41Z</time>      </trkpt>      <trkpt lat="52.415110319852829" lon="9.845232591032982">        <ele>58.299999999999997</ele>        <time>2017-07-19T08:31:42Z</time>      </trkpt>      <trkpt lat="52.415145859122276" lon="9.845200655981898">        <ele>57.340000000000003</ele>        <time>2017-07-19T08:31:43Z</time>      </trkpt>      <trkpt lat="52.415178464725614" lon="9.845173163339496">        <ele>57.340000000000003</ele>        <time>2017-07-19T08:31:44Z</time>      </trkpt>      <trkpt lat="52.415205119177699" lon="9.845146844163537">        <ele>56.859999999999999</ele>        <time>2017-07-19T08:31:45Z</time>      </trkpt>      <trkpt lat="52.415282819420099" lon="9.84503067098558">        <ele>56.369999999999997</ele>        <time>2017-07-19T08:31:51Z</time>      </trkpt>      <trkpt lat="52.415289273485541" lon="9.845010302960873">        <ele>55.890000000000001</ele>        <time>2017-07-19T08:31:52Z</time>      </trkpt>      <trkpt lat="52.41530193015933" lon="9.844995886087418">        <ele>55.890000000000001</ele>        <time>2017-07-19T08:31:53Z</time>      </trkpt>      <trkpt lat="52.415455151349306" lon="9.844970991834998">        <ele>55.890000000000001</ele>        <time>2017-07-19T08:31:59Z</time>      </trkpt>      <trkpt lat="52.41549102589488" lon="9.8449398111552">        <ele>55.890000000000001</ele>        <time>2017-07-19T08:32:00Z</time>      </trkpt>      <trkpt lat="52.415534276515245" lon="9.844887088984251">        <ele>55.409999999999997</ele>        <time>2017-07-19T08:32:01Z</time>      </trkpt>      <trkpt lat="52.415557494387031" lon="9.844856914132834">        <ele>55.890000000000001</ele>        <time>2017-07-19T08:32:02Z</time>      </trkpt>      <trkpt lat="52.415589513257146" lon="9.844808969646692">        <ele>55.409999999999997</ele>        <time>2017-07-19T08:32:03Z</time>      </trkpt>      <trkpt lat="52.4160011485219" lon="9.844246292486787">        <ele>55.409999999999997</ele>        <time>2017-07-19T08:32:18Z</time>      </trkpt>      <trkpt lat="52.416024282574654" lon="9.844260290265083">        <ele>54.93</ele>        <time>2017-07-19T08:32:37Z</time>      </trkpt>      <trkpt lat="52.416047248989344" lon="9.844287699088454">        <ele>55.890000000000001</ele>        <time>2017-07-19T08:33:02Z</time>      </trkpt>      <trkpt lat="52.416126793250442" lon="9.844689192250371">        <ele>55.890000000000001</ele>        <time>2017-07-19T08:33:13Z</time>      </trkpt>      <trkpt lat="52.416260400786996" lon="9.84526326879859">        <ele>54.93</ele>        <time>2017-07-19T08:33:26Z</time>      </trkpt>      <trkpt lat="52.416294096037745" lon="9.845309453085065">        <ele>54.93</ele>        <time>2017-07-19T08:33:28Z</time>      </trkpt>      <trkpt lat="52.416321085765958" lon="9.845320349559188">        <ele>54.93</ele>        <time>2017-07-19T08:33:29Z</time>      </trkpt>      <trkpt lat="52.416338855400681" lon="9.845319427549839">        <ele>54.93</ele>        <time>2017-07-19T08:33:30Z</time>      </trkpt>      <trkpt lat="52.416821485385299" lon="9.845369048416615">        <ele>54.93</ele>        <time>2017-07-19T08:33:44Z</time>      </trkpt>      <trkpt lat="52.417506705969572" lon="9.845607429742813">        <ele>55.409999999999997</ele>        <time>2017-07-19T08:34:00Z</time>      </trkpt>      <trkpt lat="52.418104922398925" lon="9.845900880172849">        <ele>55.409999999999997</ele>        <time>2017-07-19T08:34:13Z</time>      </trkpt>      <trkpt lat="52.418396361172199" lon="9.845977909862995"/>      <trkpt lat="52.418496608734131" lon="9.845917224884033"/>      <trkpt lat="52.418539524078369" lon="9.845767021179199"/>      <trkpt lat="52.418754100799561" lon="9.84548807144165"/>      <trkpt lat="52.419054508209229" lon="9.845230579376221"/>      <trkpt lat="52.419590950012207" lon="9.845144748687744"/>      <trkpt lat="52.420728206634521" lon="9.845445156097412"/>      <trkpt lat="52.421028614044189" lon="9.845681190490723"/>      <trkpt lat="52.421200275421143" lon="9.845852851867676"/>      <trkpt lat="52.422616481781006" lon="9.848470687866211"/>      <trkpt lat="52.423045635223389" lon="9.849050045013428"/>      <trkpt lat="52.423281669616699" lon="9.849350452423096"/>      <trkpt lat="52.42375373840332" lon="9.849908351898193"/>      <trkpt lat="52.424054145812988" lon="9.850337505340576"/>      <trkpt lat="52.424461841583252" lon="9.851174354553223"/>      <trkpt lat="52.424826622009277" lon="9.852011203765869"/>      <trkpt lat="52.425169944763184" lon="9.852826595306397"/>      <trkpt lat="52.425427436828613" lon="9.853577613830566"/>      <trkpt lat="52.425878047943115" lon="9.854800701141357"/>      <trkpt lat="52.426199913024902" lon="9.855465888977051"/>      <trkpt lat="52.426328659057617" lon="9.855916500091553"/>      <trkpt lat="52.426414489746094" lon="9.856410026550293"/>      <trkpt lat="52.426458913832903" lon="9.85685451887548"/>      <trkpt lat="52.426521778106689" lon="9.85748291015625"/>      <trkpt lat="52.426650524139404" lon="9.858405590057373"/>      <trkpt lat="52.426779270172119" lon="9.858791828155518"/>      <trkpt lat="52.427046736702323" lon="9.859355594962835"/>      <trkpt lat="52.427100213244557" lon="9.859290635213256">        <ele>57.340000000000003</ele>        <time>2017-07-19T09:01:53Z</time>      </trkpt>      <trkpt lat="52.427416043356061" lon="9.859084356576204">        <ele>57.340000000000003</ele>        <time>2017-07-19T09:02:06Z</time>      </trkpt>      <trkpt lat="52.427764981985092" lon="9.8591432813555">        <ele>57.82</ele>        <time>2017-07-19T09:02:18Z</time>      </trkpt>      <trkpt lat="52.428100593388081" lon="9.859285773709416">        <ele>58.299999999999997</ele>        <time>2017-07-19T09:02:32Z</time>      </trkpt>      <trkpt lat="52.428528154268861" lon="9.859407562762499">        <ele>58.299999999999997</ele>        <time>2017-07-19T09:02:47Z</time>      </trkpt>      <trkpt lat="52.428727140650153" lon="9.859354505315423">        <ele>57.82</ele>        <time>2017-07-19T09:02:54Z</time>      </trkpt>      <trkpt lat="52.428752286359668" lon="9.859362551942468">        <ele>57.82</ele>        <time>2017-07-19T09:02:55Z</time>      </trkpt>      <trkpt lat="52.429230473935604" lon="9.859304884448648">        <ele>57.340000000000003</ele>        <time>2017-07-19T09:03:08Z</time>      </trkpt>      <trkpt lat="52.429931033402681" lon="9.859155435115099">        <ele>57.82</ele>        <time>2017-07-19T09:03:25Z</time>      </trkpt>      <trkpt lat="52.430458171293139" lon="9.858969859778881">        <ele>58.299999999999997</ele>        <time>2017-07-19T09:03:40Z</time>      </trkpt>      <trkpt lat="52.430467642843723" lon="9.858929291367531">        <ele>58.299999999999997</ele>        <time>2017-07-19T09:03:41Z</time>      </trkpt>      <trkpt lat="52.430474180728197" lon="9.858882101252675">        <ele>58.299999999999997</ele>        <time>2017-07-19T09:03:42Z</time>      </trkpt>      <trkpt lat="52.430477365851402" lon="9.858828373253346">        <ele>58.780000000000001</ele>        <time>2017-07-19T09:03:43Z</time>      </trkpt>      <trkpt lat="52.430478958413005" lon="9.858772717416287">        <ele>58.299999999999997</ele>        <time>2017-07-19T09:03:44Z</time>      </trkpt>      <trkpt lat="52.430475438013673" lon="9.858334176242352">        <ele>58.299999999999997</ele>        <time>2017-07-19T09:03:56Z</time>      </trkpt>      <trkpt lat="52.430463284254074" lon="9.858271311968565">        <ele>57.82</ele>        <time>2017-07-19T09:04:25Z</time>      </trkpt>      <trkpt lat="52.430458422750235" lon="9.858247423544526">        <ele>57.82</ele>        <time>2017-07-19T09:04:27Z</time>      </trkpt>      <trkpt lat="52.430460853502154" lon="9.858233090490103">        <ele>57.82</ele>        <time>2017-07-19T09:04:28Z</time>      </trkpt>      <trkpt lat="52.430471247062087" lon="9.858225462958217">        <ele>57.82</ele>        <time>2017-07-19T09:04:29Z</time>      </trkpt>      <trkpt lat="52.430522292852402" lon="9.858208363875747">        <ele>58.299999999999997</ele>        <time>2017-07-19T09:04:34Z</time>      </trkpt>      <trkpt lat="52.430539391934872" lon="9.858209369704127">        <ele>58.299999999999997</ele>        <time>2017-07-19T09:04:35Z</time>      </trkpt>      <trkpt lat="52.430807529017329" lon="9.858198054134846">        <ele>58.299999999999997</ele>        <time>2017-07-19T09:04:47Z</time>      </trkpt>      <trkpt lat="52.431257218122482" lon="9.85816016793251">        <ele>58.299999999999997</ele>        <time>2017-07-19T09:05:02Z</time>      </trkpt>      <trkpt lat="52.431760719045997" lon="9.858135106042028">        <ele>59.259999999999998</ele>        <time>2017-07-19T09:05:17Z</time>      </trkpt>      <trkpt lat="52.43215030990541" lon="9.858055645599961">        <ele>60.219999999999999</ele>        <time>2017-07-19T09:05:29Z</time>      </trkpt>      <trkpt lat="52.432676693424582" lon="9.857766469940543">        <ele>60.700000000000003</ele>        <time>2017-07-19T09:05:45Z</time>      </trkpt>      <trkpt lat="52.432716339826584" lon="9.85768617130816">        <ele>60.700000000000003</ele>        <time>2017-07-19T09:05:48Z</time>      </trkpt>      <trkpt lat="52.43270929902792" lon="9.857651386409998">        <ele>60.700000000000003</ele>        <time>2017-07-19T09:05:49Z</time>      </trkpt>      <trkpt lat="52.432691445574164" lon="9.857624983415008">        <ele>60.700000000000003</ele>        <time>2017-07-19T09:05:50Z</time>      </trkpt>      <trkpt lat="52.432684069499373" lon="9.857602268457413">        <ele>60.700000000000003</ele>        <time>2017-07-19T09:05:51Z</time>      </trkpt>      <trkpt lat="52.43268339894712" lon="9.857579302042723">        <ele>60.700000000000003</ele>        <time>2017-07-19T09:05:52Z</time>      </trkpt>      <trkpt lat="52.432710556313396" lon="9.85756010748446">        <ele>60.700000000000003</ele>        <time>2017-07-19T09:06:04Z</time>      </trkpt>      <trkpt lat="52.43272740393877" lon="9.857542002573609">        <ele>60.219999999999999</ele>        <time>2017-07-19T09:06:14Z</time>      </trkpt>      <trkpt lat="52.432742659002542" lon="9.857521886005998">        <ele>60.700000000000003</ele>        <time>2017-07-19T09:06:15Z</time>      </trkpt>      <trkpt lat="52.432813737541437" lon="9.857450304552913">        <ele>60.700000000000003</ele>        <time>2017-07-19T09:06:19Z</time>      </trkpt>      <trkpt lat="52.432836703956127" lon="9.857454411685467">        <ele>60.700000000000003</ele>        <time>2017-07-19T09:06:20Z</time>      </trkpt>      <trkpt lat="52.432863274589181" lon="9.857459524646401">        <ele>60.700000000000003</ele>        <time>2017-07-19T09:06:21Z</time>      </trkpt>      <trkpt lat="52.432892695069313" lon="9.857461284846067">        <ele>60.700000000000003</ele>        <time>2017-07-19T09:06:22Z</time>      </trkpt>      <trkpt lat="52.43292186409235" lon="9.857456842437387">        <ele>60.700000000000003</ele>        <time>2017-07-19T09:06:23Z</time>      </trkpt>      <trkpt lat="52.433062344789505" lon="9.857401186600328">        <ele>60.219999999999999</ele>        <time>2017-07-19T09:06:27Z</time>      </trkpt>      <trkpt lat="52.433100482448936" lon="9.85738031566143">        <ele>60.700000000000003</ele>        <time>2017-07-19T09:06:28Z</time>      </trkpt>      <trkpt lat="52.433682437986135" lon="9.857072699815035">        <ele>59.740000000000002</ele>        <time>2017-07-19T09:06:43Z</time>      </trkpt>      <trkpt lat="52.43409457616508" lon="9.8568120226264">        <ele>58.299999999999997</ele>        <time>2017-07-19T09:06:55Z</time>      </trkpt>      <trkpt lat="52.434110166504979" lon="9.856823589652777">        <ele>58.780000000000001</ele>        <time>2017-07-19T09:06:56Z</time>      </trkpt>      <trkpt lat="52.434121482074261" lon="9.856833899393678">        <ele>58.780000000000001</ele>        <time>2017-07-19T09:06:57Z</time>      </trkpt>      <trkpt lat="52.434145789593458" lon="9.856863738968968">        <ele>58.780000000000001</ele>        <time>2017-07-19T09:06:59Z</time>      </trkpt>      <trkpt lat="52.434157021343708" lon="9.856895757839084">        <ele>58.780000000000001</ele>        <time>2017-07-19T09:07:00Z</time>      </trkpt>      <trkpt lat="52.434168672189116" lon="9.856925429776311">        <ele>58.780000000000001</ele>        <time>2017-07-19T09:07:01Z</time>      </trkpt>      <trkpt lat="52.434185855090618" lon="9.856953844428062">        <ele>58.780000000000001</ele>        <time>2017-07-19T09:07:02Z</time>      </trkpt>      <trkpt lat="52.434203205630183" lon="9.856980331242085">        <ele>58.780000000000001</ele>        <time>2017-07-19T09:07:03Z</time>      </trkpt>      <trkpt lat="52.434216951951385" lon="9.857011009007692">        <ele>58.780000000000001</ele>        <time>2017-07-19T09:07:04Z</time>      </trkpt>      <trkpt lat="52.434227094054222" lon="9.85704462043941">        <ele>58.780000000000001</ele>        <time>2017-07-19T09:07:05Z</time>      </trkpt>      <trkpt lat="52.434233715757728" lon="9.857075717300177">        <ele>58.780000000000001</ele>        <time>2017-07-19T09:07:06Z</time>      </trkpt>      <trkpt lat="52.434239415451884" lon="9.857102204114199">        <ele>58.780000000000001</ele>        <time>2017-07-19T09:07:07Z</time>      </trkpt>      <trkpt lat="52.43424410931766" lon="9.857126343995333">        <ele>58.780000000000001</ele>        <time>2017-07-19T09:07:08Z</time>      </trkpt>      <trkpt lat="52.434253077954054" lon="9.857144532725215">        <ele>58.780000000000001</ele>        <time>2017-07-19T09:07:09Z</time>      </trkpt>      <trkpt lat="52.434289455413818" lon="9.857168588787317">        <ele>58.780000000000001</ele>        <time>2017-07-19T09:07:13Z</time>      </trkpt>      <trkpt lat="52.434305129572749" lon="9.857163475826383">        <ele>58.299999999999997</ele>        <time>2017-07-19T09:07:14Z</time>      </trkpt>      <trkpt lat="52.434326922520995" lon="9.857155345380306">        <ele>58.780000000000001</ele>        <time>2017-07-19T09:07:15Z</time>      </trkpt>      <trkpt lat="52.434342512860894" lon="9.857146544381976">        <ele>58.299999999999997</ele>        <time>2017-07-19T09:07:16Z</time>      </trkpt>      <trkpt lat="52.434365898370743" lon="9.857123242691159">        <ele>58.299999999999997</ele>        <time>2017-07-19T09:07:17Z</time>      </trkpt>      <trkpt lat="52.434388697147369" lon="9.857085524126887">        <ele>58.299999999999997</ele>        <time>2017-07-19T09:07:18Z</time>      </trkpt>      <trkpt lat="52.434411831200123" lon="9.857040094211698">        <ele>57.82</ele>        <time>2017-07-19T09:07:19Z</time>      </trkpt>      <trkpt lat="52.434436054900289" lon="9.856988294050098">        <ele>58.299999999999997</ele>        <time>2017-07-19T09:07:20Z</time>      </trkpt>      <trkpt lat="52.434605034068227" lon="9.856656538322568">        <ele>58.299999999999997</ele>        <time>2017-07-19T09:07:26Z</time>      </trkpt>      <trkpt lat="52.434641998261213" lon="9.856612617149949">        <ele>58.299999999999997</ele>        <time>2017-07-19T09:07:27Z</time>      </trkpt>      <trkpt lat="52.434722045436502" lon="9.856538772583008">        <ele>58.299999999999997</ele>        <time>2017-07-19T09:07:29Z</time>      </trkpt>      <trkpt lat="52.434766218066216" lon="9.856511782854796">        <ele>57.82</ele>        <time>2017-07-19T09:07:30Z</time>      </trkpt>      <trkpt lat="52.434810725972056" lon="9.856484876945615">        <ele>57.82</ele>        <time>2017-07-19T09:07:31Z</time>      </trkpt>      <trkpt lat="52.4356132093817" lon="9.856069888919592">        <ele>57.340000000000003</ele>        <time>2017-07-19T09:07:50Z</time>      </trkpt>      <trkpt lat="52.436437904834747" lon="9.855632521212101">        <ele>57.340000000000003</ele>        <time>2017-07-19T09:08:06Z</time>      </trkpt>      <trkpt lat="52.437457060441375" lon="9.855111166834831">        <ele>57.340000000000003</ele>        <time>2017-07-19T09:08:25Z</time>      </trkpt>      <trkpt lat="52.438085284084082" lon="9.85477932728827">        <ele>57.82</ele>        <time>2017-07-19T09:08:37Z</time>      </trkpt>      <trkpt lat="52.438137587159872" lon="9.854756444692612">        <ele>57.82</ele>        <time>2017-07-19T09:08:38Z</time>      </trkpt>      <trkpt lat="52.438190644606948" lon="9.854731969535351">        <ele>57.82</ele>        <time>2017-07-19T09:08:39Z</time>      </trkpt>      <trkpt lat="52.439037971198559" lon="9.85427264124155">        <ele>57.82</ele>        <time>2017-07-19T09:08:55Z</time>      </trkpt>      <trkpt lat="52.439128328114748" lon="9.854227295145392">        <ele>57.82</ele>        <time>2017-07-19T09:08:57Z</time>      </trkpt>      <trkpt lat="52.439833078533411" lon="9.853818090632558">        <ele>56.859999999999999</ele>        <time>2017-07-19T09:09:12Z</time>      </trkpt>      <trkpt lat="52.440333310514688" lon="9.853535033762455">        <ele>56.369999999999997</ele>        <time>2017-07-19T09:09:22Z</time>      </trkpt>      <trkpt lat="52.440833710134029" lon="9.853264214470983">        <ele>56.369999999999997</ele>        <time>2017-07-19T09:09:33Z</time>      </trkpt>      <trkpt lat="52.441425556316972" lon="9.852935476228595">        <ele>56.369999999999997</ele>        <time>2017-07-19T09:09:46Z</time>      </trkpt>      <trkpt lat="52.441517924889922" lon="9.852888621389866">        <ele>56.369999999999997</ele>        <time>2017-07-19T09:09:48Z</time>      </trkpt>      <trkpt lat="52.441565115004778" lon="9.852859536185861">        <ele>56.369999999999997</ele>        <time>2017-07-19T09:09:49Z</time>      </trkpt>      <trkpt lat="52.441746331751347" lon="9.852767335250974">        <ele>56.369999999999997</ele>        <time>2017-07-19T09:09:53Z</time>      </trkpt>      <trkpt lat="52.441788241267204" lon="9.852751158177853">        <ele>56.369999999999997</ele>        <time>2017-07-19T09:09:54Z</time>      </trkpt>      <trkpt lat="52.442216305062175" lon="9.852524511516094">        <ele>55.890000000000001</ele>        <time>2017-07-19T09:10:06Z</time>      </trkpt>      <trkpt lat="52.442492572590709" lon="9.852372296154499">        <ele>55.409999999999997</ele>        <time>2017-07-19T09:10:19Z</time>      </trkpt>      <trkpt lat="52.442523669451475" lon="9.852342875674367">        <ele>55.890000000000001</ele>        <time>2017-07-19T09:10:40Z</time>      </trkpt>      <trkpt lat="52.442610170692205" lon="9.852324519306421">        <ele>55.409999999999997</ele>        <time>2017-07-19T09:11:00Z</time>      </trkpt>      <trkpt lat="52.442967323586345" lon="9.85234254039824">        <ele>56.369999999999997</ele>        <time>2017-07-19T09:11:13Z</time>      </trkpt>      <trkpt lat="52.443451210856438" lon="9.85233617015183">        <ele>56.859999999999999</ele>        <time>2017-07-19T09:11:27Z</time>      </trkpt>      <trkpt lat="52.444009529426694" lon="9.852406159043312">        <ele>56.859999999999999</ele>        <time>2017-07-19T09:11:41Z</time>      </trkpt>      <trkpt lat="52.444831877946854" lon="9.852440943941474">        <ele>56.859999999999999</ele>        <time>2017-07-19T09:12:00Z</time>      </trkpt>      <trkpt lat="52.4451126717031" lon="9.852435663342476">        <ele>56.369999999999997</ele>        <time>2017-07-19T09:12:06Z</time>      </trkpt>      <trkpt lat="52.445952454581857" lon="9.852258218452334">        <ele>56.859999999999999</ele>        <time>2017-07-19T09:12:24Z</time>      </trkpt>      <trkpt lat="52.446333663538098" lon="9.852124359458685">        <ele>57.340000000000003</ele>        <time>2017-07-19T09:12:33Z</time>      </trkpt>      <trkpt lat="52.446949062868953" lon="9.851827220991254">        <ele>57.82</ele>        <time>2017-07-19T09:12:48Z</time>      </trkpt>      <trkpt lat="52.446990637108684" lon="9.851806182414293">        <ele>57.82</ele>        <time>2017-07-19T09:12:49Z</time>      </trkpt>      <trkpt lat="52.447308730334044" lon="9.851594539359212">        <ele>57.340000000000003</ele>        <time>2017-07-19T09:12:57Z</time>      </trkpt>      <trkpt lat="52.447421634569764" lon="9.851512480527163">        <ele>57.340000000000003</ele>        <time>2017-07-19T09:13:00Z</time>      </trkpt>      <trkpt lat="52.447581477463245" lon="9.851428158581257">        <ele>57.82</ele>        <time>2017-07-19T09:13:04Z</time>      </trkpt>      <trkpt lat="52.447621375322342" lon="9.851412484422326">        <ele>57.340000000000003</ele>        <time>2017-07-19T09:13:05Z</time>      </trkpt>      <trkpt lat="52.448203582316637" lon="9.85136185772717">        <ele>58.299999999999997</ele>        <time>2017-07-19T09:13:19Z</time>      </trkpt>      <trkpt lat="52.448247587308288" lon="9.851370742544532">        <ele>58.299999999999997</ele>        <time>2017-07-19T09:13:20Z</time>      </trkpt>      <trkpt lat="52.448291592299938" lon="9.851393708959222">        <ele>58.299999999999997</ele>        <time>2017-07-19T09:13:21Z</time>      </trkpt>      <trkpt lat="52.448333753272891" lon="9.851426817476749">        <ele>58.299999999999997</ele>        <time>2017-07-19T09:13:22Z</time>      </trkpt>      <trkpt lat="52.448371555656195" lon="9.85146788880229">        <ele>58.299999999999997</ele>        <time>2017-07-19T09:13:23Z</time>      </trkpt>      <trkpt lat="52.448403909802437" lon="9.851516420021653">        <ele>58.780000000000001</ele>        <time>2017-07-19T09:13:24Z</time>      </trkpt>      <trkpt lat="52.4484299775213" lon="9.851575428619981">        <ele>58.299999999999997</ele>        <time>2017-07-19T09:13:25Z</time>      </trkpt>      <trkpt lat="52.448452273383737" lon="9.851636532694101">        <ele>58.299999999999997</ele>        <time>2017-07-19T09:13:26Z</time>      </trkpt>      <trkpt lat="52.448595184832811" lon="9.852090328931809">        <ele>58.780000000000001</ele>        <time>2017-07-19T09:13:33Z</time>      </trkpt>      <trkpt lat="52.448707669973373" lon="9.852300630882382">        <ele>58.299999999999997</ele>        <time>2017-07-19T09:13:37Z</time>      </trkpt>      <trkpt lat="52.449162304401398" lon="9.852796755731106">        <ele>58.780000000000001</ele>        <time>2017-07-19T09:13:51Z</time>      </trkpt>      <trkpt lat="52.44919516146183" lon="9.852783512324095">        <ele>58.780000000000001</ele>        <time>2017-07-19T09:13:52Z</time>      </trkpt>      <trkpt lat="52.449221815913916" lon="9.852748308330774">        <ele>58.299999999999997</ele>        <time>2017-07-19T09:13:53Z</time>      </trkpt>      <trkpt lat="52.449240172281861" lon="9.85269726254046">        <ele>58.780000000000001</ele>        <time>2017-07-19T09:13:54Z</time>      </trkpt>      <trkpt lat="52.449251236394048" lon="9.852637080475688">        <ele>58.780000000000001</ele>        <time>2017-07-19T09:13:55Z</time>      </trkpt>      <trkpt lat="52.449254170060158" lon="9.852589806541801">        <ele>58.780000000000001</ele>        <time>2017-07-19T09:13:56Z</time>      </trkpt>      <trkpt lat="52.449251236394048" lon="9.85253213904798">        <ele>58.780000000000001</ele>        <time>2017-07-19T09:13:57Z</time>      </trkpt>      <trkpt lat="52.449240339919925" lon="9.852476064115763">        <ele>58.780000000000001</ele>        <time>2017-07-19T09:13:58Z</time>      </trkpt>      <trkpt lat="52.449230113998055" lon="9.852418228983879">        <ele>58.780000000000001</ele>        <time>2017-07-19T09:13:59Z</time>      </trkpt>      <trkpt lat="52.449220474809408" lon="9.852357711642981">        <ele>58.780000000000001</ele>        <time>2017-07-19T09:14:00Z</time>      </trkpt>      <trkpt lat="52.449200358241796" lon="9.852234413847327">        <ele>58.780000000000001</ele>        <time>2017-07-19T09:14:02Z</time>      </trkpt>      <trkpt lat="52.449191138148308" lon="9.852170962840319">        <ele>58.780000000000001</ele>        <time>2017-07-19T09:14:03Z</time>      </trkpt>      <trkpt lat="52.448929622769356" lon="9.850981486961246">        <ele>58.299999999999997</ele>        <time>2017-07-19T09:14:20Z</time>      </trkpt>      <trkpt lat="52.448909087106586" lon="9.850907055661082">        <ele>58.299999999999997</ele>        <time>2017-07-19T09:14:21Z</time>      </trkpt>      <trkpt lat="52.448889473453164" lon="9.850833378732204">        <ele>58.299999999999997</ele>        <time>2017-07-19T09:14:22Z</time>      </trkpt>      <trkpt lat="52.448782185092568" lon="9.850483098998666">        <ele>58.299999999999997</ele>        <time>2017-07-19T09:14:27Z</time>      </trkpt>      <trkpt lat="52.4486078415066" lon="9.84989695250988">        <ele>57.82</ele>        <time>2017-07-19T09:14:36Z</time>      </trkpt>      <trkpt lat="52.448562076315284" lon="9.849774409085512">        <ele>57.82</ele>        <time>2017-07-19T09:14:38Z</time>      </trkpt>      <trkpt lat="52.448537014424801" lon="9.849712550640106">        <ele>57.82</ele>        <time>2017-07-19T09:14:39Z</time>      </trkpt>      <trkpt lat="52.448328472673893" lon="9.849281720817089">        <ele>58.299999999999997</ele>        <time>2017-07-19T09:14:50Z</time>      </trkpt>      <trkpt lat="52.448295867070556" lon="9.849218772724271">        <ele>58.299999999999997</ele>        <time>2017-07-19T09:15:05Z</time>      </trkpt>      <trkpt lat="52.448291089385748" lon="9.849208714440465">        <ele>58.299999999999997</ele>        <time>2017-07-19T09:15:26Z</time>      </trkpt>      <trkpt lat="52.448270888999104" lon="9.849239559844136">        <ele>58.299999999999997</ele>        <time>2017-07-19T09:15:48Z</time>      </trkpt>      <trkpt lat="52.448245994746685" lon="9.849233608692884">        <ele>58.780000000000001</ele>        <time>2017-07-19T09:16:06Z</time>      </trkpt>      <trkpt lat="52.448183968663216" lon="9.84919966198504">        <ele>58.780000000000001</ele>        <time>2017-07-19T09:16:31Z</time>      </trkpt>      <trkpt lat="52.448174664750695" lon="9.849178958684206">        <ele>58.780000000000001</ele>        <time>2017-07-19T09:16:32Z</time>      </trkpt>      <trkpt lat="52.448161505162716" lon="9.849157417193055">        <ele>58.780000000000001</ele>        <time>2017-07-19T09:16:33Z</time>      </trkpt>      <trkpt lat="52.448149183765054" lon="9.849131433293223">        <ele>58.780000000000001</ele>        <time>2017-07-19T09:16:34Z</time>      </trkpt>      <trkpt lat="52.448133509606123" lon="9.849103270098567">        <ele>58.780000000000001</ele>        <time>2017-07-19T09:16:35Z</time>      </trkpt>      <trkpt lat="52.448115069419146" lon="9.849070329219103">        <ele>58.780000000000001</ele>        <time>2017-07-19T09:16:36Z</time>      </trkpt>      <trkpt lat="52.448091600090265" lon="9.849033616483212">        <ele>59.259999999999998</ele>        <time>2017-07-19T09:16:37Z</time>      </trkpt>      <trkpt lat="52.447814326733351" lon="9.848596081137657">        <ele>58.780000000000001</ele>        <time>2017-07-19T09:16:48Z</time>      </trkpt>      <trkpt lat="52.447623303160071" lon="9.84830304980278">        <ele>58.780000000000001</ele>        <time>2017-07-19T09:16:55Z</time>      </trkpt>      <trkpt lat="52.447560355067253" lon="9.848204143345356">        <ele>58.780000000000001</ele>        <time>2017-07-19T09:16:57Z</time>      </trkpt>      <trkpt lat="52.447530515491962" lon="9.848154857754707">        <ele>58.780000000000001</ele>        <time>2017-07-19T09:16:58Z</time>      </trkpt>      <trkpt lat="52.447506794705987" lon="9.848103560507298">        <ele>58.780000000000001</ele>        <time>2017-07-19T09:16:59Z</time>      </trkpt>      <trkpt lat="52.447481397539377" lon="9.848051005974412">        <ele>58.780000000000001</ele>        <time>2017-07-19T09:17:00Z</time>      </trkpt>      <trkpt lat="52.447453653439879" lon="9.848001133650541">        <ele>58.780000000000001</ele>        <time>2017-07-19T09:17:01Z</time>      </trkpt>      <trkpt lat="52.447425993159413" lon="9.847951177507639">        <ele>58.780000000000001</ele>        <time>2017-07-19T09:17:02Z</time>      </trkpt>      <trkpt lat="52.447393052279949" lon="9.847900634631515">        <ele>58.780000000000001</ele>        <time>2017-07-19T09:17:03Z</time>      </trkpt>      <trkpt lat="52.447301773354411" lon="9.847751101478934">        <ele>58.780000000000001</ele>        <time>2017-07-19T09:17:06Z</time>      </trkpt>      <trkpt lat="52.447272771969438" lon="9.847699552774429">        <ele>58.780000000000001</ele>        <time>2017-07-19T09:17:07Z</time>      </trkpt>      <trkpt lat="52.447245111688972" lon="9.847642472013831">        <ele>58.780000000000001</ele>        <time>2017-07-19T09:17:08Z</time>      </trkpt>      <trkpt lat="52.447193143889308" lon="9.847518838942051">        <ele>58.780000000000001</ele>        <time>2017-07-19T09:17:10Z</time>      </trkpt>      <trkpt lat="52.447164477780461" lon="9.847459495067596">        <ele>58.299999999999997</ele>        <time>2017-07-19T09:17:11Z</time>      </trkpt>      <trkpt lat="52.447131955996156" lon="9.847401576116681">        <ele>58.299999999999997</ele>        <time>2017-07-19T09:17:12Z</time>      </trkpt>      <trkpt lat="52.446706658229232" lon="9.846605882048607">        <ele>57.340000000000003</ele>        <time>2017-07-19T09:17:26Z</time>      </trkpt>      <trkpt lat="52.446590736508369" lon="9.846396837383509">        <ele>57.82</ele>        <time>2017-07-19T09:17:30Z</time>      </trkpt>      <trkpt lat="52.446564752608538" lon="9.846344534307718">        <ele>57.82</ele>        <time>2017-07-19T09:17:31Z</time>      </trkpt>      <trkpt lat="52.446537930518389" lon="9.846294913440943">        <ele>57.340000000000003</ele>        <time>2017-07-19T09:17:32Z</time>      </trkpt>      <trkpt lat="52.446229141205549" lon="9.845675658434629">        <ele>57.82</ele>        <time>2017-07-19T09:17:45Z</time>      </trkpt>      <trkpt lat="52.446248671039939" lon="9.845618577674031">        <ele>58.299999999999997</ele>        <time>2017-07-19T09:17:46Z</time>      </trkpt>      <trkpt lat="52.446265518665314" lon="9.845586307346821">        <ele>58.299999999999997</ele>        <time>2017-07-19T09:17:47Z</time>      </trkpt>      <trkpt lat="52.446293011307716" lon="9.845550265163183">        <ele>57.82</ele>        <time>2017-07-19T09:17:48Z</time>      </trkpt>      <trkpt lat="52.446319498121738" lon="9.84551397152245">        <ele>58.299999999999997</ele>        <time>2017-07-19T09:17:49Z</time>      </trkpt>      <trkpt lat="52.446342213079333" lon="9.845470888540149">        <ele>58.299999999999997</ele>        <time>2017-07-19T09:17:50Z</time>      </trkpt>      <trkpt lat="52.446367526426911" lon="9.845426045358181">        <ele>58.299999999999997</ele>        <time>2017-07-19T09:17:51Z</time>      </trkpt>      <trkpt lat="52.446419158950448" lon="9.845326049253345">        <ele>58.299999999999997</ele>        <time>2017-07-19T09:17:53Z</time>      </trkpt>      <trkpt lat="52.446544719859958" lon="9.845034191384912">        <ele>58.299999999999997</ele>        <time>2017-07-19T09:17:58Z</time>      </trkpt>      <trkpt lat="52.446903632953763" lon="9.84388385899365">        <ele>58.299999999999997</ele>        <time>2017-07-19T09:18:15Z</time>      </trkpt>      <trkpt lat="52.447160119190812" lon="9.842315940186381">        <ele>57.82</ele>        <time>2017-07-19T09:18:35Z</time>      </trkpt>      <trkpt lat="52.447203453630209" lon="9.841895001009107">        <ele>57.82</ele>        <time>2017-07-19T09:18:40Z</time>      </trkpt>      <trkpt lat="52.447218289598823" lon="9.841816043481231">        <ele>57.82</ele>        <time>2017-07-19T09:18:41Z</time>      </trkpt>      <trkpt lat="52.447231030091643" lon="9.841741696000099">        <ele>57.82</ele>        <time>2017-07-19T09:18:42Z</time>      </trkpt>      <trkpt lat="52.447419036179781" lon="9.840495809912682">        <ele>57.82</ele>        <time>2017-07-19T09:18:59Z</time>      </trkpt>      <trkpt lat="52.447694046422839" lon="9.839479504153132">        <ele>57.82</ele>        <time>2017-07-19T09:19:14Z</time>      </trkpt>      <trkpt lat="52.447840226814151" lon="9.839137103408575">        <ele>57.82</ele>        <time>2017-07-19T09:19:22Z</time>      </trkpt>      <trkpt lat="52.447834108024836" lon="9.839108856394887">        <ele>57.82</ele>        <time>2017-07-19T09:19:23Z</time>      </trkpt>      <trkpt lat="52.447823043912649" lon="9.839092008769512">        <ele>57.82</ele>        <time>2017-07-19T09:19:24Z</time>      </trkpt>      <trkpt lat="52.447814997285604" lon="9.839079855009913">        <ele>57.82</ele>        <time>2017-07-19T09:19:25Z</time>      </trkpt>      <trkpt lat="52.447802675887942" lon="9.839060325175524">        <ele>57.82</ele>        <time>2017-07-19T09:19:26Z</time>      </trkpt>      <trkpt lat="52.447787085548043" lon="9.839041214436293">        <ele>57.82</ele>        <time>2017-07-19T09:19:27Z</time>      </trkpt>      <trkpt lat="52.447768729180098" lon="9.83902252279222">        <ele>57.82</ele>        <time>2017-07-19T09:19:28Z</time>      </trkpt>      <trkpt lat="52.447751127183437" lon="9.839004753157497">        <ele>58.299999999999997</ele>        <time>2017-07-19T09:19:29Z</time>      </trkpt>      <trkpt lat="52.447738135233521" lon="9.838989498093724">        <ele>58.299999999999997</ele>        <time>2017-07-19T09:19:30Z</time>      </trkpt>      <trkpt lat="52.447731345891953" lon="9.838977679610252">        <ele>58.299999999999997</ele>        <time>2017-07-19T09:19:31Z</time>      </trkpt>      <trkpt lat="52.447722712531686" lon="9.838964771479368">        <ele>58.299999999999997</ele>        <time>2017-07-19T09:19:32Z</time>      </trkpt>      <trkpt lat="52.447713240981102" lon="9.83895655721426">        <ele>58.299999999999997</ele>        <time>2017-07-19T09:19:33Z</time>      </trkpt>      <trkpt lat="52.447701590135694" lon="9.838959826156497">        <ele>57.82</ele>        <time>2017-07-19T09:19:49Z</time>      </trkpt>      <trkpt lat="52.447685664519668" lon="9.838961753994227">        <ele>57.340000000000003</ele>        <time>2017-07-19T09:20:10Z</time>      </trkpt>      <trkpt lat="52.447596313431859" lon="9.838887574151158">        <ele>57.82</ele>        <time>2017-07-19T09:20:20Z</time>      </trkpt>      <trkpt lat="52.447593212127686" lon="9.838894614949822">        <ele>58.299999999999997</ele>        <time>2017-07-19T09:20:50Z</time>      </trkpt>      <trkpt lat="52.447513584047556" lon="9.838851364329457">        <ele>58.299999999999997</ele>        <time>2017-07-19T09:21:16Z</time>      </trkpt>      <trkpt lat="52.447343012318015" lon="9.838497061282396">        <ele>57.82</ele>        <time>2017-07-19T09:21:27Z</time>      </trkpt>      <trkpt lat="52.447309819981456" lon="9.837753251194954">        <ele>57.82</ele>        <time>2017-07-19T09:21:41Z</time>      </trkpt>      <trkpt lat="52.447286266833544" lon="9.836846832185984">        <ele>57.82</ele>        <time>2017-07-19T09:21:55Z</time>      </trkpt>      <trkpt lat="52.44728266261518" lon="9.836779357865453">        <ele>57.82</ele>        <time>2017-07-19T09:21:56Z</time>      </trkpt>      <trkpt lat="52.447260869666934" lon="9.835749641060829">        <ele>56.859999999999999</ele>        <time>2017-07-19T09:22:12Z</time>      </trkpt>      <trkpt lat="52.447269083932042" lon="9.835611674934626">        <ele>57.340000000000003</ele>        <time>2017-07-19T09:22:14Z</time>      </trkpt>      <trkpt lat="52.447384502738714" lon="9.834538036957383">        <ele>56.369999999999997</ele>        <time>2017-07-19T09:22:29Z</time>      </trkpt>      <trkpt lat="52.447464633733034" lon="9.834178285673261">        <ele>56.859999999999999</ele>        <time>2017-07-19T09:22:34Z</time>      </trkpt>      <trkpt lat="52.447483241558075" lon="9.834108296781778">        <ele>56.859999999999999</ele>        <time>2017-07-19T09:22:35Z</time>      </trkpt>      <trkpt lat="52.447723299264908" lon="9.832827290520072">        <ele>56.369999999999997</ele>        <time>2017-07-19T09:22:52Z</time>      </trkpt>      <trkpt lat="52.448000321164727" lon="9.831584924831986">        <ele>56.369999999999997</ele>        <time>2017-07-19T09:23:11Z</time>      </trkpt>      <trkpt lat="52.448256891220808" lon="9.830780010670424">        <ele>55.890000000000001</ele>        <time>2017-07-19T09:23:26Z</time>      </trkpt>      <trkpt lat="52.448418410494924" lon="9.830339038744569">        <ele>55.890000000000001</ele>        <time>2017-07-19T09:23:34Z</time>      </trkpt>      <trkpt lat="52.448440371081233" lon="9.830279778689146">        <ele>55.890000000000001</ele>        <time>2017-07-19T09:23:35Z</time>      </trkpt>      <trkpt lat="52.448751255869865" lon="9.829443264752626">        <ele>56.369999999999997</ele>        <time>2017-07-19T09:23:50Z</time>      </trkpt>      <trkpt lat="52.448887210339308" lon="9.829084938392043">        <ele>55.890000000000001</ele>        <time>2017-07-19T09:23:56Z</time>      </trkpt>      <trkpt lat="52.448975052684546" lon="9.828821578994393">        <ele>55.890000000000001</ele>        <time>2017-07-19T09:24:00Z</time>      </trkpt>      <trkpt lat="52.449130872264504" lon="9.82840801589191">        <ele>56.369999999999997</ele>        <time>2017-07-19T09:24:07Z</time>      </trkpt>      <trkpt lat="52.449155179783702" lon="9.828351018950343">        <ele>56.369999999999997</ele>        <time>2017-07-19T09:24:08Z</time>      </trkpt>      <trkpt lat="52.449556672945619" lon="9.827286684885621">        <ele>56.369999999999997</ele>        <time>2017-07-19T09:24:26Z</time>      </trkpt>      <trkpt lat="52.44994374923408" lon="9.826256800442934">        <ele>56.369999999999997</ele>        <time>2017-07-19T09:24:43Z</time>      </trkpt>      <trkpt lat="52.450249018147588" lon="9.825440067797899">        <ele>56.859999999999999</ele>        <time>2017-07-19T09:24:59Z</time>      </trkpt>      <trkpt lat="52.450461164116859" lon="9.824829949066043">        <ele>56.859999999999999</ele>        <time>2017-07-19T09:25:13Z</time>      </trkpt>      <trkpt lat="52.450403580442071" lon="9.824523255228996">        <ele>57.340000000000003</ele>        <time>2017-07-19T09:25:24Z</time>      </trkpt>      <trkpt lat="52.450400562956929" lon="9.824539767578244">        <ele>57.340000000000003</ele>        <time>2017-07-19T09:25:38Z</time>      </trkpt>      <trkpt lat="52.450339375063777" lon="9.824526607990265">        <ele>57.340000000000003</ele>        <time>2017-07-19T09:25:53Z</time>      </trkpt>      <trkpt lat="52.449908712878823" lon="9.82435679063201">        <ele>56.369999999999997</ele>        <time>2017-07-19T09:26:05Z</time>      </trkpt>      <trkpt lat="52.449166662991047" lon="9.824031908065081">        <ele>55.409999999999997</ele>        <time>2017-07-19T09:26:21Z</time>      </trkpt>      <trkpt lat="52.448395863175392" lon="9.823693949729204">        <ele>54.93</ele>        <time>2017-07-19T09:26:38Z</time>      </trkpt>      <trkpt lat="52.448352696374059" lon="9.823682382702828">        <ele>54.93</ele>        <time>2017-07-19T09:26:39Z</time>      </trkpt>      <trkpt lat="52.44826041162014" lon="9.823668552562594">        <ele>54.93</ele>        <time>2017-07-19T09:26:41Z</time>      </trkpt>      <trkpt lat="52.447560438886285" lon="9.823646424338222">        <ele>54.93</ele>        <time>2017-07-19T09:26:56Z</time>      </trkpt>      <trkpt lat="52.446991894394159" lon="9.823699397966266">        <ele>54.93</ele>        <time>2017-07-19T09:27:09Z</time>      </trkpt>      <trkpt lat="52.446401556953788" lon="9.823808697983623">        <ele>54.450000000000003</ele>        <time>2017-07-19T09:27:23Z</time>      </trkpt>      <trkpt lat="52.446354702115059" lon="9.823808278888464">        <ele>54.450000000000003</ele>        <time>2017-07-19T09:27:24Z</time>      </trkpt>      <trkpt lat="52.445794874802232" lon="9.823714066296816">        <ele>54.93</ele>        <time>2017-07-19T09:27:37Z</time>      </trkpt>      <trkpt lat="52.445162544026971" lon="9.823613483458757">        <ele>55.890000000000001</ele>        <time>2017-07-19T09:27:54Z</time>      </trkpt>      <trkpt lat="52.444526692852378" lon="9.823541063815355">        <ele>55.890000000000001</ele>        <time>2017-07-19T09:28:09Z</time>      </trkpt>      <trkpt lat="52.444084715098143" lon="9.82354131527245">        <ele>55.890000000000001</ele>        <time>2017-07-19T09:28:19Z</time>      </trkpt>      <trkpt lat="52.443649359047413" lon="9.823503512889147">        <ele>55.890000000000001</ele>        <time>2017-07-19T09:28:31Z</time>      </trkpt>      <trkpt lat="52.443623039871454" lon="9.823465878143907">        <ele>55.890000000000001</ele>        <time>2017-07-19T09:28:32Z</time>      </trkpt>      <trkpt lat="52.443604348227382" lon="9.823422292247415">        <ele>55.890000000000001</ele>        <time>2017-07-19T09:28:33Z</time>      </trkpt>      <trkpt lat="52.443596385419369" lon="9.823374012485147">        <ele>55.890000000000001</ele>        <time>2017-07-19T09:28:34Z</time>      </trkpt>      <trkpt lat="52.443598648533225" lon="9.823336126282811">        <ele>56.369999999999997</ele>        <time>2017-07-19T09:28:35Z</time>      </trkpt>      <trkpt lat="52.443605940788984" lon="9.823290528729558">        <ele>56.369999999999997</ele>        <time>2017-07-19T09:28:36Z</time>      </trkpt>      <trkpt lat="52.443611389026046" lon="9.823243003338575">        <ele>56.369999999999997</ele>        <time>2017-07-19T09:28:37Z</time>      </trkpt>      <trkpt lat="52.443615579977632" lon="9.823195310309529">        <ele>56.369999999999997</ele>        <time>2017-07-19T09:28:38Z</time>      </trkpt>      <trkpt lat="52.443752037361264" lon="9.822409758344293">        <ele>55.890000000000001</ele>        <time>2017-07-19T09:28:53Z</time>      </trkpt>      <trkpt lat="52.44391649030149" lon="9.821483893319964">        <ele>55.409999999999997</ele>        <time>2017-07-19T09:29:12Z</time>      </trkpt>      <trkpt lat="52.444022856652737" lon="9.820944350212812">        <ele>55.890000000000001</ele>        <time>2017-07-19T09:29:27Z</time>      </trkpt>      <trkpt lat="52.444036016240716" lon="9.820826919749379">        <ele>55.890000000000001</ele>        <time>2017-07-19T09:29:38Z</time>      </trkpt>      <trkpt lat="52.444023359566927" lon="9.820782411843538">        <ele>55.890000000000001</ele>        <time>2017-07-19T09:29:53Z</time>      </trkpt>      <trkpt lat="52.444026293233037" lon="9.820763468742371">        <ele>55.890000000000001</ele>        <time>2017-07-19T09:29:54Z</time>      </trkpt>      <trkpt lat="52.444137940183282" lon="9.820283018052578">        <ele>56.369999999999997</ele>        <time>2017-07-19T09:30:04Z</time>      </trkpt>      <trkpt lat="52.44427272118628" lon="9.819586398079991">        <ele>55.890000000000001</ele>        <time>2017-07-19T09:30:17Z</time>      </trkpt>      <trkpt lat="52.444356121122837" lon="9.819110222160816">        <ele>56.369999999999997</ele>        <time>2017-07-19T09:30:25Z</time>      </trkpt>      <trkpt lat="52.444369699805975" lon="9.819046184420586">        <ele>56.369999999999997</ele>        <time>2017-07-19T09:30:26Z</time>      </trkpt>      <trkpt lat="52.444380931556225" lon="9.818980218842626">        <ele>56.369999999999997</ele>        <time>2017-07-19T09:30:27Z</time>      </trkpt>      <trkpt lat="52.444502217695117" lon="9.818320730701089">        <ele>56.859999999999999</ele>        <time>2017-07-19T09:30:37Z</time>      </trkpt>      <trkpt lat="52.444516634568572" lon="9.818254010751844">        <ele>56.859999999999999</ele>        <time>2017-07-19T09:30:38Z</time>      </trkpt>      <trkpt lat="52.444596346467733" lon="9.81770952232182">        <ele>56.369999999999997</ele>        <time>2017-07-19T09:30:46Z</time>      </trkpt>      <trkpt lat="52.444605147466063" lon="9.817642634734511">        <ele>56.859999999999999</ele>        <time>2017-07-19T09:30:47Z</time>      </trkpt>      <trkpt lat="52.444814192131162" lon="9.81653681024909">        <ele>56.859999999999999</ele>        <time>2017-07-19T09:31:03Z</time>      </trkpt>      <trkpt lat="52.444974035024643" lon="9.815883273258805">        <ele>56.859999999999999</ele>        <time>2017-07-19T09:31:14Z</time>      </trkpt>      <trkpt lat="52.445035809651017" lon="9.81552972458303">        <ele>57.340000000000003</ele>        <time>2017-07-19T09:31:19Z</time>      </trkpt>      <trkpt lat="52.445044778287411" lon="9.815465183928609">        <ele>57.340000000000003</ele>        <time>2017-07-19T09:31:20Z</time>      </trkpt>      <trkpt lat="52.445057854056358" lon="9.815392848104239">        <ele>57.340000000000003</ele>        <time>2017-07-19T09:31:21Z</time>      </trkpt>      <trkpt lat="52.445066403597593" lon="9.815317913889885">        <ele>57.82</ele>        <time>2017-07-19T09:31:22Z</time>      </trkpt>      <trkpt lat="52.445074114948511" lon="9.81524582952261">        <ele>57.340000000000003</ele>        <time>2017-07-19T09:31:23Z</time>      </trkpt>      <trkpt lat="52.445088196545839" lon="9.815180953592062">        <ele>57.82</ele>        <time>2017-07-19T09:31:24Z</time>      </trkpt>      <trkpt lat="52.44510730728507" lon="9.815115574747324">        <ele>58.299999999999997</ele>        <time>2017-07-19T09:31:25Z</time>      </trkpt>      <trkpt lat="52.445125412195921" lon="9.815048100426793">        <ele>57.82</ele>        <time>2017-07-19T09:31:26Z</time>      </trkpt>      <trkpt lat="52.445139158517122" lon="9.814976267516613">        <ele>57.82</ele>        <time>2017-07-19T09:31:27Z</time>      </trkpt>      <trkpt lat="52.445153156295419" lon="9.814901752397418">        <ele>58.299999999999997</ele>        <time>2017-07-19T09:31:28Z</time>      </trkpt>      <trkpt lat="52.44522993452847" lon="9.81452364474535">        <ele>58.299999999999997</ele>        <time>2017-07-19T09:31:33Z</time>      </trkpt>      <trkpt lat="52.445248626172543" lon="9.814450889825821">        <ele>58.299999999999997</ele>        <time>2017-07-19T09:31:34Z</time>      </trkpt>      <trkpt lat="52.445346862077713" lon="9.814063478261232">        <ele>58.780000000000001</ele>        <time>2017-07-19T09:31:40Z</time>      </trkpt>      <trkpt lat="52.445390615612268" lon="9.813850745558739">        <ele>58.780000000000001</ele>        <time>2017-07-19T09:31:43Z</time>      </trkpt>      <trkpt lat="52.445429507642984" lon="9.813628792762756">        <ele>58.780000000000001</ele>        <time>2017-07-19T09:31:46Z</time>      </trkpt>      <trkpt lat="52.445443002507091" lon="9.813553439453244">        <ele>58.780000000000001</ele>        <time>2017-07-19T09:31:47Z</time>      </trkpt>      <trkpt lat="52.445607874542475" lon="9.812301266938448">        <ele>57.340000000000003</ele>        <time>2017-07-19T09:32:03Z</time>      </trkpt>      <trkpt lat="52.445670822635293" lon="9.811842022463679">        <ele>57.340000000000003</ele>        <time>2017-07-19T09:33:10Z</time>      </trkpt>      <trkpt lat="52.445793952792883" lon="9.811269622296095">        <ele>57.82</ele>        <time>2017-07-19T09:33:20Z</time>      </trkpt>      <trkpt lat="52.445807950571179" lon="9.811201309785247">        <ele>57.82</ele>        <time>2017-07-19T09:33:21Z</time>      </trkpt>      <trkpt lat="52.445850363001227" lon="9.810974327847362">        <ele>57.340000000000003</ele>        <time>2017-07-19T09:33:24Z</time>      </trkpt>      <trkpt lat="52.445863438770175" lon="9.81090190820396">        <ele>57.340000000000003</ele>        <time>2017-07-19T09:33:25Z</time>      </trkpt>      <trkpt lat="52.445878861472011" lon="9.810831500217319">        <ele>56.859999999999999</ele>        <time>2017-07-19T09:33:26Z</time>      </trkpt>      <trkpt lat="52.445891769602895" lon="9.810765953734517">        <ele>57.340000000000003</ele>        <time>2017-07-19T09:33:27Z</time>      </trkpt>      <trkpt lat="52.445904007181525" lon="9.810699066147208">        <ele>56.859999999999999</ele>        <time>2017-07-19T09:33:28Z</time>      </trkpt>      <trkpt lat="52.445917334407568" lon="9.810634860768914">        <ele>56.859999999999999</ele>        <time>2017-07-19T09:33:29Z</time>      </trkpt>      <trkpt lat="52.446061335504055" lon="9.809819972142577">        <ele>57.340000000000003</ele>        <time>2017-07-19T09:33:42Z</time>      </trkpt>      <trkpt lat="52.446188321337104" lon="9.809291744604707">        <ele>56.369999999999997</ele>        <time>2017-07-19T09:33:53Z</time>      </trkpt>      <trkpt lat="52.44619351811707" lon="9.809257546439767">        <ele>56.369999999999997</ele>        <time>2017-07-19T09:34:08Z</time>      </trkpt>      <trkpt lat="52.446192931383848" lon="9.809154449030757">        <ele>56.369999999999997</ele>        <time>2017-07-19T09:34:33Z</time>      </trkpt>      <trkpt lat="52.446235595270991" lon="9.809128046035767">        <ele>56.369999999999997</ele>        <time>2017-07-19T09:35:47Z</time>      </trkpt>      <trkpt lat="52.446243809536099" lon="9.809130476787686">        <ele>56.369999999999997</ele>        <time>2017-07-19T09:36:15Z</time>      </trkpt>      <trkpt lat="52.446276834234595" lon="9.809154281392694">        <ele>56.369999999999997</ele>        <time>2017-07-19T09:36:43Z</time>      </trkpt>      <trkpt lat="52.446432402357459" lon="9.809088483452797">        <ele>56.369999999999997</ele>        <time>2017-07-19T09:36:53Z</time>      </trkpt>      <trkpt lat="52.446958282962441" lon="9.808887736871839">        <ele>55.409999999999997</ele>        <time>2017-07-19T09:37:09Z</time>      </trkpt>      <trkpt lat="52.447623386979103" lon="9.808683637529612">        <ele>55.409999999999997</ele>        <time>2017-07-19T09:37:26Z</time>      </trkpt>      <trkpt lat="52.447751378640532" lon="9.808648601174355">        <ele>54.93</ele>        <time>2017-07-19T09:37:29Z</time>      </trkpt>      <trkpt lat="52.448317157104611" lon="9.808089276775718">        <ele>54.93</ele>        <time>2017-07-19T09:37:45Z</time>      </trkpt>      <trkpt lat="52.44843534193933" lon="9.807835891842842">        <ele>54.450000000000003</ele>        <time>2017-07-19T09:37:49Z</time>      </trkpt>      <trkpt lat="52.44846316985786" lon="9.807761711999774">        <ele>54.450000000000003</ele>        <time>2017-07-19T09:37:50Z</time>      </trkpt>      <trkpt lat="52.448633573949337" lon="9.807255109772086">        <ele>54.450000000000003</ele>        <time>2017-07-19T09:37:57Z</time>      </trkpt>      <trkpt lat="52.449021069332957" lon="9.806206868961453">        <ele>54.93</ele>        <time>2017-07-19T09:38:13Z</time>      </trkpt>      <trkpt lat="52.449478134512901" lon="9.805058715865016">        <ele>54.93</ele>        <time>2017-07-19T09:38:31Z</time>      </trkpt>      <trkpt lat="52.449943916872144" lon="9.803823390975595">        <ele>54.450000000000003</ele>        <time>2017-07-19T09:38:48Z</time>      </trkpt>      <trkpt lat="52.450153129175305" lon="9.802525117993355">        <ele>54.450000000000003</ele>        <time>2017-07-19T09:39:04Z</time>      </trkpt>      <trkpt lat="52.450382374227047" lon="9.80101453140378">        <ele>54.450000000000003</ele>        <time>2017-07-19T09:39:23Z</time>      </trkpt>      <trkpt lat="52.450391845777631" lon="9.800942949950695">        <ele>54.450000000000003</ele>        <time>2017-07-19T09:39:24Z</time>      </trkpt>      <trkpt lat="52.450563423335552" lon="9.799885405227542">        <ele>54.93</ele>        <time>2017-07-19T09:39:40Z</time>      </trkpt>      <trkpt lat="52.450611451640725" lon="9.799756491556764">        <ele>55.409999999999997</ele>        <time>2017-07-19T09:39:49Z</time>      </trkpt>      <trkpt lat="52.450659899041057" lon="9.799669906497002">        <ele>55.409999999999997</ele>        <time>2017-07-19T09:40:09Z</time>      </trkpt>      <trkpt lat="52.451038593426347" lon="9.799680132418871">        <ele>55.409999999999997</ele>        <time>2017-07-19T09:40:20Z</time>      </trkpt>      <trkpt lat="52.451776284724474" lon="9.799592541530728">        <ele>55.409999999999997</ele>        <time>2017-07-19T09:40:37Z</time>      </trkpt>      <trkpt lat="52.45232823304832" lon="9.799464298412204">        <ele>55.890000000000001</ele>        <time>2017-07-19T09:40:50Z</time>      </trkpt>      <trkpt lat="52.452886467799544" lon="9.79926573112607">        <ele>57.340000000000003</ele>        <time>2017-07-19T09:41:05Z</time>      </trkpt>      <trkpt lat="52.453492730855942" lon="9.798988038673997">        <ele>57.82</ele>        <time>2017-07-19T09:41:21Z</time>      </trkpt>      <trkpt lat="52.454152638092637" lon="9.798590568825603">        <ele>58.299999999999997</ele>        <time>2017-07-19T09:41:38Z</time>      </trkpt>      <trkpt lat="52.454710453748703" lon="9.798137024044991">        <ele>57.82</ele>        <time>2017-07-19T09:41:55Z</time>      </trkpt>      <trkpt lat="52.455126447603106" lon="9.798011966049671">        <ele>57.82</ele>        <time>2017-07-19T09:42:09Z</time>      </trkpt>      <trkpt lat="52.455161735415459" lon="9.798022359609604">        <ele>59.259999999999998</ele>        <time>2017-07-19T09:42:24Z</time>      </trkpt>      <trkpt lat="52.455173637717962" lon="9.798011630773544">        <ele>58.780000000000001</ele>        <time>2017-07-19T09:42:25Z</time>      </trkpt>      <trkpt lat="52.45518771931529" lon="9.797995621338487">        <ele>58.780000000000001</ele>        <time>2017-07-19T09:42:26Z</time>      </trkpt>      <trkpt lat="52.455212278291583" lon="9.797953963279724">        <ele>59.259999999999998</ele>        <time>2017-07-19T09:42:28Z</time>      </trkpt>      <trkpt lat="52.455212194472551" lon="9.797902330756187">        <ele>58.780000000000001</ele>        <time>2017-07-19T09:42:40Z</time>      </trkpt>      <trkpt lat="52.455271370708942" lon="9.797766376286745">        <ele>58.780000000000001</ele>        <time>2017-07-19T09:42:58Z</time>      </trkpt>      <trkpt lat="52.455266509205103" lon="9.797714911401272">        <ele>58.780000000000001</ele>        <time>2017-07-19T09:42:59Z</time>      </trkpt>      <trkpt lat="52.455254271626472" lon="9.797661099582911">        <ele>58.299999999999997</ele>        <time>2017-07-19T09:43:00Z</time>      </trkpt>      <trkpt lat="52.455224934965372" lon="9.7974803019315">        <ele>58.299999999999997</ele>        <time>2017-07-19T09:43:03Z</time>      </trkpt>      <trkpt lat="52.455226192250848" lon="9.797424226999283">        <ele>57.82</ele>        <time>2017-07-19T09:43:04Z</time>      </trkpt>      <trkpt lat="52.455226359888911" lon="9.79737033136189">        <ele>57.82</ele>        <time>2017-07-19T09:43:05Z</time>      </trkpt>      <trkpt lat="52.455220324918628" lon="9.797318195924163">        <ele>57.82</ele>        <time>2017-07-19T09:43:06Z</time>      </trkpt>      <trkpt lat="52.455207668244839" lon="9.797265809029341">        <ele>57.82</ele>        <time>2017-07-19T09:43:07Z</time>      </trkpt>      <trkpt lat="52.45519844815135" lon="9.797213254496455">        <ele>57.82</ele>        <time>2017-07-19T09:43:08Z</time>      </trkpt>      <trkpt lat="52.455191826447845" lon="9.797161789610982">        <ele>58.299999999999997</ele>        <time>2017-07-19T09:43:09Z</time>      </trkpt>      <trkpt lat="52.455180427059531" lon="9.79710697196424">        <ele>58.780000000000001</ele>        <time>2017-07-19T09:43:10Z</time>      </trkpt>      <trkpt lat="52.455168524757028" lon="9.797049975022674">        <ele>58.780000000000001</ele>        <time>2017-07-19T09:43:11Z</time>      </trkpt>      <trkpt lat="52.45516181923449" lon="9.796990547329187">        <ele>58.780000000000001</ele>        <time>2017-07-19T09:43:12Z</time>      </trkpt>      <trkpt lat="52.455154862254858" lon="9.796929527074099">        <ele>59.259999999999998</ele>        <time>2017-07-19T09:43:13Z</time>      </trkpt>      <trkpt lat="52.455146731808782" lon="9.796868758276105">        <ele>58.780000000000001</ele>        <time>2017-07-19T09:43:14Z</time>      </trkpt>      <trkpt lat="52.455117059871554" lon="9.79641504585743">        <ele>58.780000000000001</ele>        <time>2017-07-19T09:43:23Z</time>      </trkpt>      <trkpt lat="52.455078419297934" lon="9.796235002577305">        <ele>58.299999999999997</ele>        <time>2017-07-19T09:43:26Z</time>      </trkpt>      <trkpt lat="52.455038102343678" lon="9.796105083078146">        <ele>58.299999999999997</ele>        <time>2017-07-19T09:43:28Z</time>      </trkpt>      <trkpt lat="52.455012034624815" lon="9.796033333986998">        <ele>58.299999999999997</ele>        <time>2017-07-19T09:43:29Z</time>      </trkpt>      <trkpt lat="52.454611798748374" lon="9.79484461247921">        <ele>57.340000000000003</ele>        <time>2017-07-19T09:43:46Z</time>      </trkpt>      <trkpt lat="52.454546252265573" lon="9.794628359377384">        <ele>57.340000000000003</ele>        <time>2017-07-19T09:43:49Z</time>      </trkpt>      <trkpt lat="52.454526303336024" lon="9.794559208676219">        <ele>57.340000000000003</ele>        <time>2017-07-19T09:43:50Z</time>      </trkpt>      <trkpt lat="52.454507444053888" lon="9.794485028833151">        <ele>57.340000000000003</ele>        <time>2017-07-19T09:43:51Z</time>      </trkpt>      <trkpt lat="52.454455392435193" lon="9.794260477647185">        <ele>57.340000000000003</ele>        <time>2017-07-19T09:43:54Z</time>      </trkpt>      <trkpt lat="52.454440388828516" lon="9.794180765748024">        <ele>56.859999999999999</ele>        <time>2017-07-19T09:43:55Z</time>      </trkpt>      <trkpt lat="52.454422283917665" lon="9.794012540951371">        <ele>56.369999999999997</ele>        <time>2017-07-19T09:43:57Z</time>      </trkpt>      <trkpt lat="52.454418763518333" lon="9.793922686949372">        <ele>56.369999999999997</ele>        <time>2017-07-19T09:43:58Z</time>      </trkpt>      <trkpt lat="52.454413147643209" lon="9.792321994900703">        <ele>54.93</ele>        <time>2017-07-19T09:44:14Z</time>      </trkpt>      <trkpt lat="52.454104023054242" lon="9.790599094703794">        <ele>53.969999999999999</ele>        <time>2017-07-19T09:44:32Z</time>      </trkpt>      <trkpt lat="52.454088013619184" lon="9.790135324001312">        <ele>54.450000000000003</ele>        <time>2017-07-19T09:44:37Z</time>      </trkpt>      <trkpt lat="52.454111147671938" lon="9.789773309603334">        <ele>54.450000000000003</ele>        <time>2017-07-19T09:44:41Z</time>      </trkpt>      <trkpt lat="52.454187925904989" lon="9.789445661008358">        <ele>54.450000000000003</ele>        <time>2017-07-19T09:44:49Z</time>      </trkpt>      <trkpt lat="52.454081559553742" lon="9.789306689053774"/>      <trkpt lat="52.454494787380099" lon="9.788396414369345"/>      <trkpt lat="52.454593610018492" lon="9.78825300000608"/>      <trkpt lat="52.454665442928672" lon="9.78795200586319"/>      <trkpt lat="52.454575588926673" lon="9.784009829163551"/>      <trkpt lat="52.45447676628828" lon="9.781529875472188"/>      <trkpt lat="52.454431923106313" lon="9.781415211036801"/>      <trkpt lat="52.454449944198132" lon="9.78101740591228">        <ele>53.969999999999999</ele>        <time>2017-07-19T09:49:24Z</time>      </trkpt>      <trkpt lat="52.454433850944042" lon="9.780984800308943">        <ele>53.969999999999999</ele>        <time>2017-07-19T09:49:25Z</time>      </trkpt>      <trkpt lat="52.454430749639869" lon="9.780939621850848">        <ele>53.969999999999999</ele>        <time>2017-07-19T09:49:26Z</time>      </trkpt>      <trkpt lat="52.454453632235527" lon="9.780107382684946">        <ele>54.450000000000003</ele>        <time>2017-07-19T09:49:40Z</time>      </trkpt>      <trkpt lat="52.454441310837865" lon="9.779209764674306">        <ele>53.969999999999999</ele>        <time>2017-07-19T09:49:52Z</time>      </trkpt>      <trkpt lat="52.454438880085945" lon="9.77913424372673">        <ele>53.969999999999999</ele>        <time>2017-07-19T09:49:53Z</time>      </trkpt>      <trkpt lat="52.454426642507315" lon="9.778701402246952">        <ele>53.969999999999999</ele>        <time>2017-07-19T09:49:59Z</time>      </trkpt>      <trkpt lat="52.454390432685614" lon="9.777340684086084">        <ele>53.969999999999999</ele>        <time>2017-07-19T09:50:16Z</time>      </trkpt>      <trkpt lat="52.45438682846725" lon="9.777176734060049">        <ele>53.969999999999999</ele>        <time>2017-07-19T09:50:18Z</time>      </trkpt>      <trkpt lat="52.454382134601474" lon="9.777095094323158">        <ele>53.490000000000002</ele>        <time>2017-07-19T09:50:19Z</time>      </trkpt>      <trkpt lat="52.454338883981109" lon="9.775838730856776">        <ele>53.969999999999999</ele>        <time>2017-07-19T09:50:35Z</time>      </trkpt>      <trkpt lat="52.454300997778773" lon="9.774416070431471">        <ele>53.969999999999999</ele>        <time>2017-07-19T09:50:52Z</time>      </trkpt>      <trkpt lat="52.454272080212831" lon="9.77354041300714">        <ele>53.490000000000002</ele>        <time>2017-07-19T09:51:02Z</time>      </trkpt>      <trkpt lat="52.454262273386121" lon="9.773454582318664">        <ele>53.969999999999999</ele>        <time>2017-07-19T09:51:03Z</time>      </trkpt>      <trkpt lat="52.454248527064919" lon="9.773371014744043">        <ele>53.969999999999999</ele>        <time>2017-07-19T09:51:04Z</time>      </trkpt>      <trkpt lat="52.454234277829528" lon="9.773294990882278">        <ele>53.969999999999999</ele>        <time>2017-07-19T09:51:05Z</time>      </trkpt>      <trkpt lat="52.454226147383451" lon="9.77321938611567">        <ele>53.969999999999999</ele>        <time>2017-07-19T09:51:06Z</time>      </trkpt>      <trkpt lat="52.454221369698644" lon="9.773146212100983">        <ele>53.969999999999999</ele>        <time>2017-07-19T09:51:07Z</time>      </trkpt>      <trkpt lat="52.454212484881282" lon="9.772777995094657">        <ele>53.969999999999999</ele>        <time>2017-07-19T09:51:12Z</time>      </trkpt>      <trkpt lat="52.454229919239879" lon="9.772634999826551">        <ele>53.969999999999999</ele>        <time>2017-07-19T09:51:14Z</time>      </trkpt>      <trkpt lat="52.454204186797142" lon="9.771362375468016">        <ele>53.969999999999999</ele>        <time>2017-07-19T09:51:31Z</time>      </trkpt>      <trkpt lat="52.454160936176777" lon="9.77046400308609">        <ele>54.93</ele>        <time>2017-07-19T09:51:43Z</time>      </trkpt>      <trkpt lat="52.454048115760088" lon="9.769753133878112">        <ele>55.409999999999997</ele>        <time>2017-07-19T09:51:56Z</time>      </trkpt>      <trkpt lat="52.454061275348067" lon="9.769717594608665">        <ele>55.409999999999997</ele>        <time>2017-07-19T09:52:08Z</time>      </trkpt>      <trkpt lat="52.454021042212844" lon="9.769694544374943">        <ele>54.93</ele>        <time>2017-07-19T09:52:33Z</time>      </trkpt>      <trkpt lat="52.454025149345398" lon="9.769672499969602">        <ele>55.409999999999997</ele>        <time>2017-07-19T09:52:40Z</time>      </trkpt>      <trkpt lat="52.454025568440557" lon="9.769627321511507">        <ele>55.409999999999997</ele>        <time>2017-07-19T09:52:42Z</time>      </trkpt>      <trkpt lat="52.45402573607862" lon="9.769601337611675">        <ele>55.409999999999997</ele>        <time>2017-07-19T09:52:43Z</time>      </trkpt>      <trkpt lat="52.45403797365725" lon="9.769582143053412">        <ele>55.409999999999997</ele>        <time>2017-07-19T09:52:44Z</time>      </trkpt>      <trkpt lat="52.454283982515335" lon="9.769379887729883">        <ele>54.450000000000003</ele>        <time>2017-07-19T09:52:53Z</time>      </trkpt>      <trkpt lat="52.454308122396469" lon="9.769318616017699">        <ele>54.450000000000003</ele>        <time>2017-07-19T09:52:54Z</time>      </trkpt>      <trkpt lat="52.454670304432511" lon="9.768562316894531">        <ele>53.969999999999999</ele>        <time>2017-07-19T09:53:09Z</time>      </trkpt>      <trkpt lat="52.455300204455853" lon="9.767728401347995">        <ele>53.490000000000002</ele>        <time>2017-07-19T09:53:28Z</time>      </trkpt>      <trkpt lat="52.455917028710246" lon="9.76687646470964">        <ele>53.490000000000002</ele>        <time>2017-07-19T09:53:47Z</time>      </trkpt>      <trkpt lat="52.455953070893884" lon="9.766842434182763">        <ele>53.490000000000002</ele>        <time>2017-07-19T09:53:48Z</time>      </trkpt>      <trkpt lat="52.455919627100229" lon="9.766758196055889"/>      <trkpt lat="52.455925075337291" lon="9.766591982915998"/>      <trkpt lat="52.455959189683199" lon="9.766480168327689"/>      <trkpt lat="52.456058012321591" lon="9.766431385651231"/>      <trkpt lat="52.456054575741291" lon="9.76637271232903">        <ele>53.490000000000002</ele>        <time>2017-07-19T09:54:05Z</time>      </trkpt>      <trkpt lat="52.45605013333261" lon="9.766322253271937">        <ele>53.490000000000002</ele>        <time>2017-07-19T09:54:06Z</time>      </trkpt>      <trkpt lat="52.456051725894213" lon="9.766279421746731">        <ele>53.490000000000002</ele>        <time>2017-07-19T09:54:07Z</time>      </trkpt>      <trkpt lat="52.456054827198386" lon="9.766231393441558">        <ele>53.009999999999998</ele>        <time>2017-07-19T09:54:08Z</time>      </trkpt>      <trkpt lat="52.456055749207735" lon="9.766176994889975">        <ele>53.009999999999998</ele>        <time>2017-07-19T09:54:09Z</time>      </trkpt>      <trkpt lat="52.456054156646132" lon="9.765787152573466">        <ele>52.530000000000001</ele>        <time>2017-07-19T09:54:16Z</time>      </trkpt>      <trkpt lat="52.456073267385364" lon="9.765758235007525">        <ele>53.490000000000002</ele>        <time>2017-07-19T09:54:17Z</time>      </trkpt>      <trkpt lat="52.45610193349421" lon="9.765743147581816">        <ele>53.969999999999999</ele>        <time>2017-07-19T09:54:18Z</time>      </trkpt>      <trkpt lat="52.456131689250469" lon="9.765728143975139">        <ele>53.969999999999999</ele>        <time>2017-07-19T09:54:19Z</time>      </trkpt>      <trkpt lat="52.456158678978682" lon="9.765710206702352">        <ele>53.490000000000002</ele>        <time>2017-07-19T09:54:20Z</time>      </trkpt>      <trkpt lat="52.456236127763987" lon="9.765696795657277">        <ele>53.969999999999999</ele>        <time>2017-07-19T09:54:29Z</time>      </trkpt>      <trkpt lat="52.456244425848126" lon="9.765699477866292">        <ele>53.490000000000002</ele>        <time>2017-07-19T09:54:43Z</time>      </trkpt>      <trkpt lat="52.456254903227091" lon="9.765685312449932">        <ele>53.490000000000002</ele>        <time>2017-07-19T09:54:44Z</time>      </trkpt>      <trkpt lat="52.45627049356699" lon="9.765669470652938">        <ele>53.490000000000002</ele>        <time>2017-07-19T09:54:45Z</time>      </trkpt>      <trkpt lat="52.456293292343616" lon="9.765653964132071">        <ele>53.490000000000002</ele>        <time>2017-07-19T09:54:46Z</time>      </trkpt>      <trkpt lat="52.456318605691195" lon="9.765638206154108">        <ele>53.490000000000002</ele>        <time>2017-07-19T09:54:47Z</time>      </trkpt>      <trkpt lat="52.456345930695534" lon="9.765618592500687">        <ele>53.490000000000002</ele>        <time>2017-07-19T09:54:48Z</time>      </trkpt>      <trkpt lat="52.456889497116208" lon="9.76525959558785">        <ele>53.490000000000002</ele>        <time>2017-07-19T09:55:02Z</time>      </trkpt>      <trkpt lat="52.457596594467759" lon="9.764795992523432">        <ele>53.490000000000002</ele>        <time>2017-07-19T09:55:18Z</time>      </trkpt>      <trkpt lat="52.457712600007653" lon="9.764760285615921">        <ele>53.969999999999999</ele>        <time>2017-07-19T09:55:21Z</time>      </trkpt>      <trkpt lat="52.457752833142877" lon="9.764774618670344">        <ele>53.969999999999999</ele>        <time>2017-07-19T09:55:22Z</time>      </trkpt>      <trkpt lat="52.457791641354561" lon="9.764793310314417">        <ele>53.969999999999999</ele>        <time>2017-07-19T09:55:23Z</time>      </trkpt>      <trkpt lat="52.458374267444015" lon="9.765149876475334">        <ele>53.969999999999999</ele>        <time>2017-07-19T09:55:36Z</time>      </trkpt>      <trkpt lat="52.459091506898403" lon="9.765544077381492">        <ele>53.969999999999999</ele>        <time>2017-07-19T09:55:50Z</time>      </trkpt>      <trkpt lat="52.459461484104395" lon="9.765762006863952">        <ele>53.969999999999999</ele>        <time>2017-07-19T09:55:58Z</time>      </trkpt>      <trkpt lat="52.459721490740776" lon="9.765900392085314">        <ele>53.969999999999999</ele>        <time>2017-07-19T09:56:04Z</time>      </trkpt>      <trkpt lat="52.45976272970438" lon="9.765929393470287">        <ele>53.969999999999999</ele>        <time>2017-07-19T09:56:05Z</time>      </trkpt>      <trkpt lat="52.459803381934762" lon="9.765955796465278">        <ele>53.969999999999999</ele>        <time>2017-07-19T09:56:06Z</time>      </trkpt>      <trkpt lat="52.459929026663303" lon="9.766014302149415">        <ele>53.969999999999999</ele>        <time>2017-07-19T09:56:10Z</time>      </trkpt>      <trkpt lat="52.459953334182501" lon="9.766001058742404">        <ele>53.969999999999999</ele>        <time>2017-07-19T09:56:11Z</time>      </trkpt>      <trkpt lat="52.459972612559795" lon="9.765975410118699">        <ele>53.969999999999999</ele>        <time>2017-07-19T09:56:12Z</time>      </trkpt>      <trkpt lat="52.45998652651906" lon="9.7659373562783">        <ele>53.490000000000002</ele>        <time>2017-07-19T09:56:13Z</time>      </trkpt>      <trkpt lat="52.459994573146105" lon="9.765903074294329">        <ele>53.490000000000002</ele>        <time>2017-07-19T09:56:14Z</time>      </trkpt>      <trkpt lat="52.460002116858959" lon="9.765861164778471">        <ele>53.490000000000002</ele>        <time>2017-07-19T09:56:15Z</time>      </trkpt>      <trkpt lat="52.460008738562465" lon="9.765812633559108">        <ele>53.969999999999999</ele>        <time>2017-07-19T09:56:16Z</time>      </trkpt>      <trkpt lat="52.460134299471974" lon="9.765202850103378">        <ele>53.490000000000002</ele>        <time>2017-07-19T09:56:30Z</time>      </trkpt>      <trkpt lat="52.460227087140083" lon="9.764940328896046">        <ele>53.969999999999999</ele>        <time>2017-07-19T09:56:41Z</time>      </trkpt>      <trkpt lat="52.460235888138413" lon="9.764920212328434">        <ele>53.969999999999999</ele>        <time>2017-07-19T09:56:53Z</time>      </trkpt>      <trkpt lat="52.460239743813872" lon="9.764899592846632">        <ele>53.969999999999999</ele>        <time>2017-07-19T09:56:54Z</time>      </trkpt>      <trkpt lat="52.460247538983822" lon="9.764880063012242">        <ele>53.969999999999999</ele>        <time>2017-07-19T09:56:55Z</time>      </trkpt>      <trkpt lat="52.460261369124055" lon="9.764862712472677">        <ele>53.969999999999999</ele>        <time>2017-07-19T09:56:56Z</time>      </trkpt>      <trkpt lat="52.46027922257781" lon="9.764839746057987">        <ele>53.969999999999999</ele>        <time>2017-07-19T09:56:57Z</time>      </trkpt>      <trkpt lat="52.460298333317041" lon="9.76481007412076">        <ele>53.490000000000002</ele>        <time>2017-07-19T09:56:58Z</time>      </trkpt>      <trkpt lat="52.460319958627224" lon="9.764777384698391">        <ele>53.969999999999999</ele>        <time>2017-07-19T09:56:59Z</time>      </trkpt>      <trkpt lat="52.460697060450912" lon="9.764351416379213">        <ele>53.969999999999999</ele>        <time>2017-07-19T09:57:12Z</time>      </trkpt>      <trkpt lat="52.461187485605478" lon="9.763929639011622">        <ele>53.969999999999999</ele>        <time>2017-07-19T09:57:26Z</time>      </trkpt>      <trkpt lat="52.461360404267907" lon="9.763743728399277">        <ele>53.969999999999999</ele>        <time>2017-07-19T09:57:33Z</time>      </trkpt>      <trkpt lat="52.461294187232852" lon="9.763241903856397">        <ele>53.969999999999999</ele>        <time>2017-07-19T09:57:44Z</time>      </trkpt>      <trkpt lat="52.461111126467586" lon="9.762359289452434">        <ele>54.450000000000003</ele>        <time>2017-07-19T09:57:59Z</time>      </trkpt>      <trkpt lat="52.46088364161551" lon="9.761648587882519">        <ele>55.409999999999997</ele>        <time>2017-07-19T09:58:12Z</time>      </trkpt>      <trkpt lat="52.460829159244895" lon="9.761451529338956">        <ele>55.409999999999997</ele>        <time>2017-07-19T09:58:16Z</time>      </trkpt>      <trkpt lat="52.460841983556747" lon="9.761412721127272">        <ele>54.93</ele>        <time>2017-07-19T09:58:17Z</time>      </trkpt>      <trkpt lat="52.460866793990135" lon="9.761374751105905">        <ele>55.409999999999997</ele>        <time>2017-07-19T09:58:18Z</time>      </trkpt>      <trkpt lat="52.460886156186461" lon="9.761348012834787">        <ele>55.409999999999997</ele>        <time>2017-07-19T09:58:19Z</time>      </trkpt>      <trkpt lat="52.46091247536242" lon="9.761314569041133">        <ele>55.409999999999997</ele>        <time>2017-07-19T09:58:20Z</time>      </trkpt>      <trkpt lat="52.461335174739361" lon="9.761081049218774">        <ele>55.890000000000001</ele>        <time>2017-07-19T09:58:32Z</time>      </trkpt>      <trkpt lat="52.461861055344343" lon="9.760899497196078">        <ele>55.409999999999997</ele>        <time>2017-07-19T09:58:47Z</time>      </trkpt>      <trkpt lat="52.462317617610097" lon="9.760765386745334">        <ele>55.409999999999997</ele>        <time>2017-07-19T09:58:58Z</time>      </trkpt>      <trkpt lat="52.462359862402081" lon="9.760769577696919">        <ele>54.93</ele>        <time>2017-07-19T09:58:59Z</time>      </trkpt>      <trkpt lat="52.462750542908907" lon="9.760860102251172">        <ele>53.969999999999999</ele>        <time>2017-07-19T09:59:08Z</time>      </trkpt>      <trkpt lat="52.462793793529272" lon="9.760880134999752">        <ele>53.969999999999999</ele>        <time>2017-07-19T09:59:09Z</time>      </trkpt>      <trkpt lat="52.462837547063828" lon="9.760899413377047">        <ele>53.969999999999999</ele>        <time>2017-07-19T09:59:10Z</time>      </trkpt>      <trkpt lat="52.463264269754291" lon="9.761123713105917">        <ele>54.450000000000003</ele>        <time>2017-07-19T09:59:23Z</time>      </trkpt>      <trkpt lat="52.463288409635425" lon="9.761148355901241">        <ele>56.369999999999997</ele>        <time>2017-07-19T09:59:28Z</time>      </trkpt>      <trkpt lat="52.463476415723562" lon="9.761261679232121">        <ele>54.93</ele>        <time>2017-07-19T09:59:43Z</time>      </trkpt>      <trkpt lat="52.463710187003016" lon="9.76147080771625">        <ele>54.450000000000003</ele>        <time>2017-07-19T09:59:51Z</time>      </trkpt>      <trkpt lat="52.463748073205352" lon="9.761511543765664">        <ele>54.450000000000003</ele>        <time>2017-07-19T09:59:52Z</time>      </trkpt>      <trkpt lat="52.463784366846085" lon="9.76155923679471">        <ele>54.450000000000003</ele>        <time>2017-07-19T09:59:53Z</time>      </trkpt>      <trkpt lat="52.46381445787847" lon="9.761610617861152">        <ele>54.450000000000003</ele>        <time>2017-07-19T09:59:54Z</time>      </trkpt>      <trkpt lat="52.463871957734227" lon="9.761720169335604">        <ele>54.450000000000003</ele>        <time>2017-07-19T09:59:56Z</time>      </trkpt>      <trkpt lat="52.46389945037663" lon="9.761776495724917">        <ele>53.969999999999999</ele>        <time>2017-07-19T09:59:57Z</time>      </trkpt>      <trkpt lat="52.463919231668115" lon="9.761838270351291">        <ele>54.450000000000003</ele>        <time>2017-07-19T09:59:58Z</time>      </trkpt>      <trkpt lat="52.463932558894157" lon="9.761906499043107">        <ele>54.450000000000003</ele>        <time>2017-07-19T09:59:59Z</time>      </trkpt>      <trkpt lat="52.463940102607012" lon="9.761982522904873">        <ele>54.450000000000003</ele>        <time>2017-07-19T10:00:00Z</time>      </trkpt>      <trkpt lat="52.463939348235726" lon="9.762060726061463">        <ele>54.93</ele>        <time>2017-07-19T10:00:01Z</time>      </trkpt>      <trkpt lat="52.463938342407346" lon="9.762136917561293">        <ele>54.93</ele>        <time>2017-07-19T10:00:02Z</time>      </trkpt>      <trkpt lat="52.463945299386978" lon="9.762730440124869">        <ele>54.450000000000003</ele>        <time>2017-07-19T10:00:11Z</time>      </trkpt>      <trkpt lat="52.463979497551918" lon="9.762765141204">        <ele>54.450000000000003</ele>        <time>2017-07-19T10:00:12Z</time>      </trkpt>      <trkpt lat="52.46402065269649" lon="9.762789532542229">        <ele>54.450000000000003</ele>        <time>2017-07-19T10:00:13Z</time>      </trkpt>      <trkpt lat="52.464236989617348" lon="9.762875279411674">        <ele>54.93</ele>        <time>2017-07-19T10:00:18Z</time>      </trkpt>      <trkpt lat="52.4648352060467" lon="9.763170992955566">        <ele>54.450000000000003</ele>        <time>2017-07-19T10:00:32Z</time>      </trkpt>      <trkpt lat="52.465406013652682" lon="9.763558236882091">        <ele>53.969999999999999</ele>        <time>2017-07-19T10:00:46Z</time>      </trkpt>      <trkpt lat="52.465918315574527" lon="9.763872977346182">        <ele>53.490000000000002</ele>        <time>2017-07-19T10:01:00Z</time>      </trkpt>      <trkpt lat="52.466450398787856" lon="9.764065342023969">        <ele>53.490000000000002</ele>        <time>2017-07-19T10:01:14Z</time>      </trkpt>      <trkpt lat="52.46657227165997" lon="9.764097863808274"/>      <trkpt lat="52.466868739575148" lon="9.764074897393584"/>      <trkpt lat="52.466930598020554" lon="9.764050673693419">        <ele>52.530000000000001</ele>        <time>2017-07-19T10:09:32Z</time>      </trkpt>      <trkpt lat="52.467233017086983" lon="9.763973392546177">        <ele>52.530000000000001</ele>        <time>2017-07-19T10:09:44Z</time>      </trkpt>      <trkpt lat="52.467370647937059" lon="9.76392712444067">        <ele>52.049999999999997</ele>        <time>2017-07-19T10:09:55Z</time>      </trkpt>      <trkpt lat="52.467392021790147" lon="9.763913294300437">        <ele>52.530000000000001</ele>        <time>2017-07-19T10:09:57Z</time>      </trkpt>      <trkpt lat="52.467410294339061" lon="9.76390709169209">        <ele>52.530000000000001</ele>        <time>2017-07-19T10:09:58Z</time>      </trkpt>      <trkpt lat="52.467724699527025" lon="9.76380935870111">        <ele>52.049999999999997</ele>        <time>2017-07-19T10:10:09Z</time>      </trkpt>      <trkpt lat="52.468164665624499" lon="9.763722522184253">        <ele>52.530000000000001</ele>        <time>2017-07-19T10:10:22Z</time>      </trkpt>      <trkpt lat="52.468439508229494" lon="9.764263071119785">        <ele>52.049999999999997</ele>        <time>2017-07-19T10:10:33Z</time>      </trkpt>      <trkpt lat="52.468517459928989" lon="9.764378238469362">        <ele>52.049999999999997</ele>        <time>2017-07-19T10:10:36Z</time>      </trkpt>      <trkpt lat="52.468548389151692" lon="9.764381423592567">        <ele>51.57</ele>        <time>2017-07-19T10:10:37Z</time>      </trkpt>      <trkpt lat="52.4685721937567" lon="9.764372957870364">        <ele>52.049999999999997</ele>        <time>2017-07-19T10:10:38Z</time>      </trkpt>      <trkpt lat="52.468687780201435" lon="9.763962328433991">        <ele>52.530000000000001</ele>        <time>2017-07-19T10:10:49Z</time>      </trkpt>      <trkpt lat="52.468668585643172" lon="9.763617999851704">        <ele>52.049999999999997</ele>        <time>2017-07-19T10:10:56Z</time>      </trkpt>      <trkpt lat="52.468699011951685" lon="9.763587908819318">        <ele>52.530000000000001</ele>        <time>2017-07-19T10:10:57Z</time>      </trkpt>      <trkpt lat="52.468729689717293" lon="9.763564690947533">        <ele>52.530000000000001</ele>        <time>2017-07-19T10:10:58Z</time>      </trkpt>      <trkpt lat="52.468761876225471" lon="9.763557314872742">        <ele>52.530000000000001</ele>        <time>2017-07-19T10:10:59Z</time>      </trkpt>      <trkpt lat="52.468795320019126" lon="9.763556392863393">        <ele>52.530000000000001</ele>        <time>2017-07-19T10:11:00Z</time>      </trkpt>      <trkpt lat="52.468827087432146" lon="9.763563182204962">        <ele>52.530000000000001</ele>        <time>2017-07-19T10:11:01Z</time>      </trkpt>      <trkpt lat="52.469395464286208" lon="9.763641552999616">        <ele>52.049999999999997</ele>        <time>2017-07-19T10:11:16Z</time>      </trkpt>      <trkpt lat="52.469999715685844" lon="9.763692012056708">        <ele>51.57</ele>        <time>2017-07-19T10:11:32Z</time>      </trkpt>      <trkpt lat="52.470530373975635" lon="9.763753032311797">        <ele>52.049999999999997</ele>        <time>2017-07-19T10:11:46Z</time>      </trkpt>      <trkpt lat="52.471109144389629" lon="9.76381178945303">        <ele>52.049999999999997</ele>        <time>2017-07-19T10:12:01Z</time>      </trkpt>      <trkpt lat="52.471144432201982" lon="9.763811454176903">        <ele>52.049999999999997</ele>        <time>2017-07-19T10:12:12Z</time>      </trkpt>      <trkpt lat="52.471265383064747" lon="9.763824110850692">        <ele>52.049999999999997</ele>        <time>2017-07-19T10:12:38Z</time>      </trkpt>      <trkpt lat="52.471715994179249" lon="9.763885885477066">        <ele>52.049999999999997</ele>        <time>2017-07-19T10:12:52Z</time>      </trkpt>      <trkpt lat="52.47234245762229" lon="9.763947324827313">        <ele>51.57</ele>        <time>2017-07-19T10:13:08Z</time>      </trkpt>      <trkpt lat="52.472980236634612" lon="9.764012452214956">        <ele>52.049999999999997</ele>        <time>2017-07-19T10:13:24Z</time>      </trkpt>      <trkpt lat="52.473616003990173" lon="9.764236584305763">        <ele>51.57</ele>        <time>2017-07-19T10:13:40Z</time>      </trkpt>      <trkpt lat="52.474201060831547" lon="9.7646473813802">        <ele>51.57</ele>        <time>2017-07-19T10:13:55Z</time>      </trkpt>      <trkpt lat="52.474705567583442" lon="9.764991542324424">        <ele>51.090000000000003</ele>        <time>2017-07-19T10:14:09Z</time>      </trkpt>      <trkpt lat="52.475016787648201" lon="9.76519706659019">        <ele>50.609999999999999</ele>        <time>2017-07-19T10:14:18Z</time>      </trkpt>      <trkpt lat="52.475461950525641" lon="9.765445590019226">        <ele>50.609999999999999</ele>        <time>2017-07-19T10:24:30Z</time>      </trkpt>      <trkpt lat="52.475794041529298" lon="9.765702830627561">        <ele>49.159999999999997</ele>        <time>2017-07-19T10:24:42Z</time>      </trkpt>      <trkpt lat="52.476353533565998" lon="9.766028299927712">        <ele>47.240000000000002</ele>        <time>2017-07-19T10:24:58Z</time>      </trkpt>      <trkpt lat="52.47698150575161" lon="9.766212617978454">        <ele>46.280000000000001</ele>        <time>2017-07-19T10:25:13Z</time>      </trkpt>      <trkpt lat="52.477703439071774" lon="9.766373466700316">        <ele>46.759999999999998</ele>        <time>2017-07-19T10:25:30Z</time>      </trkpt>      <trkpt lat="52.477912651374936" lon="9.766382100060582">        <ele>47.240000000000002</ele>        <time>2017-07-19T10:25:41Z</time>      </trkpt>      <trkpt lat="52.477923883125186" lon="9.766385788097978">        <ele>47.240000000000002</ele>        <time>2017-07-19T10:26:10Z</time>      </trkpt>      <trkpt lat="52.47810484841466" lon="9.766435576602817">        <ele>46.759999999999998</ele>        <time>2017-07-19T10:26:25Z</time>      </trkpt>      <trkpt lat="52.47868780978024" lon="9.766750652343035">        <ele>45.799999999999997</ele>        <time>2017-07-19T10:26:43Z</time>      </trkpt>      <trkpt lat="52.479310501366854" lon="9.767308551818132">        <ele>45.799999999999997</ele>        <time>2017-07-19T10:27:00Z</time>      </trkpt>      <trkpt lat="52.479924224317074" lon="9.767968961969018">        <ele>46.280000000000001</ele>        <time>2017-07-19T10:27:16Z</time>      </trkpt>      <trkpt lat="52.480509281158447" lon="9.768517473712564">        <ele>46.280000000000001</ele>        <time>2017-07-19T10:27:31Z</time>      </trkpt>      <trkpt lat="52.4805514421314" lon="9.768538596108556">        <ele>45.799999999999997</ele>        <time>2017-07-19T10:27:32Z</time>      </trkpt>      <trkpt lat="52.480593770742416" lon="9.768551588058472">        <ele>46.759999999999998</ele>        <time>2017-07-19T10:27:33Z</time>      </trkpt>      <trkpt lat="52.480638697743416" lon="9.76855636574328">        <ele>46.280000000000001</ele>        <time>2017-07-19T10:27:34Z</time>      </trkpt>      <trkpt lat="52.480686139315367" lon="9.768557539209724">        <ele>46.280000000000001</ele>        <time>2017-07-19T10:27:35Z</time>      </trkpt>      <trkpt lat="52.481584595516324" lon="9.768694918602705">        <ele>46.280000000000001</ele>        <time>2017-07-19T10:27:54Z</time>      </trkpt>      <trkpt lat="52.482378194108605" lon="9.768800782039762">        <ele>46.280000000000001</ele>        <time>2017-07-19T10:28:13Z</time>      </trkpt>      <trkpt lat="52.482683043926954" lon="9.768017577007413">        <ele>46.280000000000001</ele>        <time>2017-07-19T10:28:27Z</time>      </trkpt>      <trkpt lat="52.482926873490214" lon="9.767103865742683">        <ele>46.759999999999998</ele>        <time>2017-07-19T10:28:42Z</time>      </trkpt>      <trkpt lat="52.482998790219426" lon="9.766624169424176">        <ele>46.759999999999998</ele>        <time>2017-07-19T10:28:54Z</time>      </trkpt>      <trkpt lat="52.483002813532948" lon="9.766534818336368">        <ele>47.240000000000002</ele>        <time>2017-07-19T10:29:17Z</time>      </trkpt>      <trkpt lat="52.483009770512581" lon="9.766503134742379">        <ele>47.240000000000002</ele>        <time>2017-07-19T10:29:18Z</time>      </trkpt>      <trkpt lat="52.483011614531279" lon="9.766461225226522">        <ele>47.240000000000002</ele>        <time>2017-07-19T10:29:19Z</time>      </trkpt>      <trkpt lat="52.483051680028439" lon="9.765663770958781">        <ele>47.240000000000002</ele>        <time>2017-07-19T10:29:32Z</time>      </trkpt>      <trkpt lat="52.483028965070844" lon="9.764456190168858">        <ele>46.759999999999998</ele>        <time>2017-07-19T10:29:48Z</time>      </trkpt>      <trkpt lat="52.482790248468518" lon="9.763273168355227">        <ele>46.759999999999998</ele>        <time>2017-07-19T10:30:05Z</time>      </trkpt>      <trkpt lat="52.482471568509936" lon="9.762067766860127">        <ele>47.240000000000002</ele>        <time>2017-07-19T10:30:21Z</time>      </trkpt>      <trkpt lat="52.482167305424809" lon="9.760850546881557">        <ele>47.240000000000002</ele>        <time>2017-07-19T10:30:37Z</time>      </trkpt>      <trkpt lat="52.482144422829151" lon="9.76077544502914">        <ele>47.240000000000002</ele>        <time>2017-07-19T10:30:38Z</time>      </trkpt>      <trkpt lat="52.482110308483243" lon="9.760710652917624">        <ele>47.240000000000002</ele>        <time>2017-07-19T10:30:39Z</time>      </trkpt>      <trkpt lat="52.482067225500941" lon="9.760661534965038">        <ele>47.240000000000002</ele>        <time>2017-07-19T10:30:40Z</time>      </trkpt>      <trkpt lat="52.481995141133666" lon="9.760586181655526">        <ele>47.240000000000002</ele>        <time>2017-07-19T10:30:42Z</time>      </trkpt>      <trkpt lat="52.481964128091931" lon="9.76052968762815">        <ele>46.759999999999998</ele>        <time>2017-07-19T10:30:43Z</time>      </trkpt>      <trkpt lat="52.4819415807724" lon="9.760460117831826">        <ele>46.759999999999998</ele>        <time>2017-07-19T10:30:44Z</time>      </trkpt>      <trkpt lat="52.481588032096624" lon="9.759056400507689">        <ele>46.759999999999998</ele>        <time>2017-07-19T10:31:01Z</time>      </trkpt>      <trkpt lat="52.481223167851567" lon="9.757647151127458">        <ele>46.759999999999998</ele>        <time>2017-07-19T10:31:19Z</time>      </trkpt>      <trkpt lat="52.481039604172111" lon="9.756847517564893">        <ele>46.759999999999998</ele>        <time>2017-07-19T10:31:30Z</time>      </trkpt>      <trkpt lat="52.481046058237553" lon="9.756778199225664">        <ele>47.240000000000002</ele>        <time>2017-07-19T10:31:31Z</time>      </trkpt>      <trkpt lat="52.481060139834881" lon="9.756713910028338">        <ele>46.759999999999998</ele>        <time>2017-07-19T10:31:32Z</time>      </trkpt>      <trkpt lat="52.48098436743021" lon="9.756147712469101">        <ele>47.719999999999999</ele>        <time>2017-07-19T10:31:41Z</time>      </trkpt>      <trkpt lat="52.480575414374471" lon="9.754837788641453">        <ele>47.719999999999999</ele>        <time>2017-07-19T10:31:59Z</time>      </trkpt>      <trkpt lat="52.480137627571821" lon="9.753708243370056">        <ele>48.200000000000003</ele>        <time>2017-07-19T10:32:15Z</time>      </trkpt>      <trkpt lat="52.479576794430614" lon="9.752452215179801">        <ele>48.200000000000003</ele>        <time>2017-07-19T10:32:34Z</time>      </trkpt>      <trkpt lat="52.479135738685727" lon="9.751481423154473">        <ele>48.200000000000003</ele>        <time>2017-07-19T10:32:49Z</time>      </trkpt>      <trkpt lat="52.479112269356847" lon="9.751409003511071">        <ele>48.200000000000003</ele>        <time>2017-07-19T10:32:50Z</time>      </trkpt>      <trkpt lat="52.479091985151172" lon="9.751329123973846">        <ele>48.200000000000003</ele>        <time>2017-07-19T10:32:51Z</time>      </trkpt>      <trkpt lat="52.478979080915451" lon="9.750188598409295">        <ele>48.200000000000003</ele>        <time>2017-07-19T10:33:05Z</time>      </trkpt>      <trkpt lat="52.478969693183899" lon="9.75011114962399">        <ele>48.200000000000003</ele>        <time>2017-07-19T10:33:06Z</time>      </trkpt>      <trkpt lat="52.478893753141165" lon="9.749148571863771">        <ele>48.68</ele>        <time>2017-07-19T10:33:18Z</time>      </trkpt>      <trkpt lat="52.478889562189579" lon="9.749061735346913">        <ele>48.200000000000003</ele>        <time>2017-07-19T10:33:19Z</time>      </trkpt>      <trkpt lat="52.478856537491083" lon="9.74774812348187">        <ele>48.68</ele>        <time>2017-07-19T10:33:35Z</time>      </trkpt>      <trkpt lat="52.478854190558195" lon="9.747670087963343">        <ele>48.68</ele>        <time>2017-07-19T10:33:36Z</time>      </trkpt>      <trkpt lat="52.478839438408613" lon="9.74684271030128"/>      <trkpt lat="52.478858297690749" lon="9.746421268209815"/>      <trkpt lat="52.478801719844341" lon="9.746292270720005"/>      <trkpt lat="52.478804402053356" lon="9.746120274066925"/>      <trkpt lat="52.478925688192248" lon="9.746055733412504"/>      <trkpt lat="52.478987630456686" lon="9.745974009856582"/>      <trkpt lat="52.479098103940487" lon="9.746064366772771"/>      <trkpt lat="52.479160130023956" lon="9.746072916314006"/>      <trkpt lat="52.479154849424958" lon="9.746017176657915">        <ele>49.159999999999997</ele>        <time>2017-07-19T10:36:25Z</time>      </trkpt>      <trkpt lat="52.479147557169199" lon="9.745967891067267">        <ele>49.159999999999997</ele>        <time>2017-07-19T10:36:26Z</time>      </trkpt>      <trkpt lat="52.479145796969533" lon="9.745915420353413">        <ele>49.159999999999997</ele>        <time>2017-07-19T10:36:27Z</time>      </trkpt>      <trkpt lat="52.479142611846328" lon="9.745861608535051">        <ele>49.159999999999997</ele>        <time>2017-07-19T10:36:28Z</time>      </trkpt>      <trkpt lat="52.479136995971203" lon="9.745796481147409">        <ele>49.159999999999997</ele>        <time>2017-07-19T10:36:29Z</time>      </trkpt>      <trkpt lat="52.479081926867366" lon="9.744918057695031">        <ele>48.68</ele>        <time>2017-07-19T10:36:42Z</time>      </trkpt>      <trkpt lat="52.479076813906431" lon="9.744771625846624">        <ele>48.68</ele>        <time>2017-07-19T10:36:44Z</time>      </trkpt>      <trkpt lat="52.479262640699744" lon="9.74351660348475">        <ele>49.159999999999997</ele>        <time>2017-07-19T10:37:00Z</time>      </trkpt>      <trkpt lat="52.479427848011255" lon="9.741901662200689">        <ele>49.159999999999997</ele>        <time>2017-07-19T10:37:19Z</time>      </trkpt>      <trkpt lat="52.479407479986548" lon="9.740359140560031">        <ele>49.159999999999997</ele>        <time>2017-07-19T10:37:37Z</time>      </trkpt>      <trkpt lat="52.479495070874691" lon="9.739364460110664">        <ele>49.649999999999999</ele>        <time>2017-07-19T10:37:53Z</time>      </trkpt>      <trkpt lat="52.479317039251328" lon="9.73932271823287">        <ele>49.649999999999999</ele>        <time>2017-07-19T10:37:59Z</time>      </trkpt>      <trkpt lat="52.47913490049541" lon="9.739298326894641">        <ele>49.159999999999997</ele>        <time>2017-07-19T10:38:04Z</time>      </trkpt>      <trkpt lat="52.478632237762213" lon="9.738802369683981">        <ele>48.68</ele>        <time>2017-07-19T10:38:19Z</time>      </trkpt>      <trkpt lat="52.478624107316136" lon="9.738759621977806">        <ele>48.68</ele>        <time>2017-07-19T10:38:20Z</time>      </trkpt>      <trkpt lat="52.478622430935502" lon="9.738717628642917">        <ele>48.68</ele>        <time>2017-07-19T10:38:21Z</time>      </trkpt>      <trkpt lat="52.478626202791929" lon="9.738675132393837">        <ele>48.68</ele>        <time>2017-07-19T10:38:22Z</time>      </trkpt>      <trkpt lat="52.478632740676403" lon="9.73863372579217">        <ele>48.68</ele>        <time>2017-07-19T10:38:23Z</time>      </trkpt>      <trkpt lat="52.478640787303448" lon="9.738592486828566">        <ele>49.159999999999997</ele>        <time>2017-07-19T10:38:24Z</time>      </trkpt>      <trkpt lat="52.478753188624978" lon="9.737967867404223">        <ele>49.159999999999997</ele>        <time>2017-07-19T10:38:37Z</time>      </trkpt>      <trkpt lat="52.478928370401263" lon="9.737288011237979">        <ele>49.159999999999997</ele>        <time>2017-07-19T10:38:50Z</time>      </trkpt>      <trkpt lat="52.478947984054685" lon="9.737275019288063">        <ele>49.159999999999997</ele>        <time>2017-07-19T10:38:51Z</time>      </trkpt>      <trkpt lat="52.478965166956186" lon="9.737270744517446">        <ele>49.649999999999999</ele>        <time>2017-07-19T10:38:52Z</time>      </trkpt>      <trkpt lat="52.478988552466035" lon="9.73726999014616">        <ele>49.649999999999999</ele>        <time>2017-07-19T10:38:53Z</time>      </trkpt>      <trkpt lat="52.479013362899423" lon="9.737274181097746">        <ele>49.159999999999997</ele>        <time>2017-07-19T10:38:54Z</time>      </trkpt>      <trkpt lat="52.479038676247001" lon="9.737279126420617">        <ele>49.159999999999997</ele>        <time>2017-07-19T10:38:55Z</time>      </trkpt>      <trkpt lat="52.479064743965864" lon="9.737282060086727">        <ele>49.159999999999997</ele>        <time>2017-07-19T10:38:56Z</time>      </trkpt>      <trkpt lat="52.479158705100417" lon="9.737322796136141">        <ele>50.130000000000003</ele>        <time>2017-07-19T10:39:06Z</time>      </trkpt>      <trkpt lat="52.479167003184557" lon="9.737354563549161">        <ele>49.649999999999999</ele>        <time>2017-07-19T10:39:23Z</time>      </trkpt>      <trkpt lat="52.47918913140893" lon="9.737361017614603">        <ele>49.649999999999999</ele>        <time>2017-07-19T10:39:25Z</time>      </trkpt>      <trkpt lat="52.479204973205924" lon="9.737368393689394">        <ele>49.649999999999999</ele>        <time>2017-07-19T10:39:26Z</time>      </trkpt>      <trkpt lat="52.479224754497409" lon="9.737375769764185">        <ele>49.649999999999999</ele>        <time>2017-07-19T10:39:27Z</time>      </trkpt>      <trkpt lat="52.479244954884052" lon="9.737387504428625">        <ele>49.159999999999997</ele>        <time>2017-07-19T10:39:28Z</time>      </trkpt>      <trkpt lat="52.479267586022615" lon="9.737402675673366">        <ele>49.159999999999997</ele>        <time>2017-07-19T10:39:29Z</time>      </trkpt>      <trkpt lat="52.479291390627623" lon="9.737422959879041">        <ele>49.159999999999997</ele>        <time>2017-07-19T10:39:30Z</time>      </trkpt>      <trkpt lat="52.47975692152977" lon="9.737824117764831">        <ele>49.649999999999999</ele>        <time>2017-07-19T10:39:45Z</time>      </trkpt>      <trkpt lat="52.480298224836588" lon="9.737957809120417">        <ele>49.159999999999997</ele>        <time>2017-07-19T10:39:59Z</time>      </trkpt>      <trkpt lat="52.480973470956087" lon="9.737782124429941">        <ele>49.649999999999999</ele>        <time>2017-07-19T10:40:16Z</time>      </trkpt>      <trkpt lat="52.481422824785113" lon="9.737240737304092">        <ele>50.130000000000003</ele>        <time>2017-07-19T10:40:31Z</time>      </trkpt>      <trkpt lat="52.481483090668917" lon="9.737098915502429">        <ele>51.090000000000003</ele>        <time>2017-07-19T10:40:42Z</time>      </trkpt>      <trkpt lat="52.481470853090286" lon="9.737053653225303">        <ele>50.609999999999999</ele>        <time>2017-07-19T10:40:59Z</time>      </trkpt>      <trkpt lat="52.481458531692624" lon="9.737027082592249">        <ele>50.609999999999999</ele>        <time>2017-07-19T10:41:00Z</time>      </trkpt>      <trkpt lat="52.481443779543042" lon="9.737001769244671">        <ele>50.609999999999999</ele>        <time>2017-07-19T10:41:01Z</time>      </trkpt>      <trkpt lat="52.481126608327031" lon="9.736473625525832">        <ele>50.609999999999999</ele>        <time>2017-07-19T10:41:15Z</time>      </trkpt>      <trkpt lat="52.481096098199487" lon="9.736456610262394">        <ele>51.090000000000003</ele>        <time>2017-07-19T10:41:17Z</time>      </trkpt>      <trkpt lat="52.481076065450907" lon="9.736470188945532">        <ele>51.090000000000003</ele>        <time>2017-07-19T10:41:18Z</time>      </trkpt>      <trkpt lat="52.481055362150073" lon="9.736490976065397">        <ele>50.609999999999999</ele>        <time>2017-07-19T10:41:19Z</time>      </trkpt>      <trkpt lat="52.480617994442582" lon="9.736982909962535">        <ele>50.130000000000003</ele>        <time>2017-07-19T10:41:35Z</time>      </trkpt>      <trkpt lat="52.480502994731069" lon="9.736994476988912">        <ele>50.609999999999999</ele>        <time>2017-07-19T10:41:39Z</time>      </trkpt>      <trkpt lat="52.48048740439117" lon="9.736970253288746">        <ele>50.609999999999999</ele>        <time>2017-07-19T10:41:40Z</time>      </trkpt>      <trkpt lat="52.48047424480319" lon="9.736936809495091">        <ele>50.609999999999999</ele>        <time>2017-07-19T10:41:41Z</time>      </trkpt>      <trkpt lat="52.480305517092347" lon="9.736600527539849">        <ele>50.609999999999999</ele>        <time>2017-07-19T10:41:53Z</time>      </trkpt>      <trkpt lat="52.480182303115726" lon="9.736485360190272">        <ele>49.649999999999999</ele>        <time>2017-07-19T10:41:59Z</time>      </trkpt>      <trkpt lat="52.480175849050283" lon="9.736511511728168">        <ele>49.649999999999999</ele>        <time>2017-07-19T10:42:00Z</time>      </trkpt>      <trkpt lat="52.48018104583025" lon="9.736537327989936">        <ele>49.649999999999999</ele>        <time>2017-07-19T10:42:01Z</time>      </trkpt>      <trkpt lat="52.480193870142102" lon="9.736553253605962">        <ele>49.649999999999999</ele>        <time>2017-07-19T10:42:02Z</time>      </trkpt>      <trkpt lat="52.480211136862636" lon="9.736565910279751">        <ele>49.649999999999999</ele>        <time>2017-07-19T10:42:03Z</time>      </trkpt>      <trkpt lat="52.480328064411879" lon="9.736717035993934">        <ele>49.159999999999997</ele>        <time>2017-07-19T10:42:09Z</time>      </trkpt>      <trkpt lat="52.480321610346437" lon="9.736740924417973">        <ele>48.68</ele>        <time>2017-07-19T10:42:10Z</time>      </trkpt>      <trkpt lat="52.480306942015886" lon="9.736746372655034">        <ele>48.68</ele>        <time>2017-07-19T10:42:11Z</time>      </trkpt>      <trkpt lat="52.480292776599526" lon="9.736736649647355">        <ele>48.68</ele>        <time>2017-07-19T10:42:12Z</time>      </trkpt>      <trkpt lat="52.480276515707374" lon="9.736718544736505">        <ele>48.68</ele>        <time>2017-07-19T10:42:13Z</time>      </trkpt>      <trkpt lat="52.480257656425238" lon="9.73669683560729">        <ele>48.68</ele>        <time>2017-07-19T10:42:14Z</time>      </trkpt>      <trkpt lat="52.480235109105706" lon="9.736677389591932">        <ele>48.200000000000003</ele>        <time>2017-07-19T10:42:15Z</time>      </trkpt>      <trkpt lat="52.480208706110716" lon="9.736653668805957">        <ele>48.200000000000003</ele>        <time>2017-07-19T10:42:16Z</time>      </trkpt>      <trkpt lat="52.480081049725413" lon="9.736538082361221">        <ele>47.719999999999999</ele>        <time>2017-07-19T10:42:20Z</time>      </trkpt>      <trkpt lat="52.480050874873996" lon="9.736487790942192">        <ele>47.719999999999999</ele>        <time>2017-07-19T10:42:21Z</time>      </trkpt>      <trkpt lat="52.480025980621576" lon="9.736431464552879">        <ele>47.719999999999999</ele>        <time>2017-07-19T10:42:22Z</time>      </trkpt>      <trkpt lat="52.479846943169832" lon="9.735887814313173">        <ele>49.649999999999999</ele>        <time>2017-07-19T10:42:32Z</time>      </trkpt>    </trkseg>  </trk></gpx>